RRR9720 EGQS-KLSV
Flight info
| Callsign | RRR9720 |
|---|---|
| Flight time | N/A |
| Altitude | 36000 |
| Route | LAGAV DCT DONIB N562 MIMKU DCT PIKIL/M082F360 DCT 5630N02000W 5730N03000W 5830N04000W 5930N05000W DCT URTAK/N0482F360 DCT KLIPS DCT 5581N DCT 5290N DCT ZOMTA DCT KD90W DCT OCS DCT URIAH DCT WOXEK |
| Aircraft | A332/H-SDE3GHIJ2J3J5M1RVWXY/LB2D1 |
Departure
| Time | 2026-05-08 20:13 |
|---|---|
| Airport | RAF Lossiemouth (EGQS) |
Arrival
| Time | N/A |
|---|---|
| Airport | Nellis Air Force Base (KLSV) |
| Time | Latitude | Longitude | Altitude | Speed | Heading |
|---|---|---|---|---|---|
| 2026-05-08 20:07 | 57.71433 | -3.33302 | 41 ft | 0 kts | 139° |
| 2026-05-08 20:09 | 57.71430 | -3.33296 | 41 ft | 7 kts | 139° |
| 2026-05-08 20:09 | 57.71327 | -3.33190 | 41 ft | 22 kts | 157° |
| 2026-05-08 20:10 | 57.71211 | -3.33341 | 43 ft | 25 kts | 225° |
| 2026-05-08 20:10 | 57.71078 | -3.33616 | 45 ft | 32 kts | 231° |
| 2026-05-08 20:10 | 57.70920 | -3.33968 | 48 ft | 38 kts | 228° |
| 2026-05-08 20:10 | 57.70727 | -3.34360 | 48 ft | 44 kts | 224° |
| 2026-05-08 20:11 | 57.70473 | -3.34737 | 45 ft | 49 kts | 218° |
| 2026-05-08 20:11 | 57.70188 | -3.35152 | 40 ft | 54 kts | 218° |
| 2026-05-08 20:11 | 57.69928 | -3.35489 | 35 ft | 16 kts | 176° |
| 2026-05-08 20:11 | 57.69824 | -3.35333 | 33 ft | 17 kts | 96° |
| 2026-05-08 20:12 | 57.69866 | -3.35226 | 33 ft | 0 kts | 44° |
| 2026-05-08 20:12 | 57.70016 | -3.34973 | 36 ft | 83 kts | 41° |
| 2026-05-08 20:12 | 57.70659 | -3.33791 | 48 ft | 175 kts | 45° |
| 2026-05-08 20:13 | 57.71655 | -3.31949 | 699 ft | 204 kts | 43° |
| 2026-05-08 20:13 | 57.72658 | -3.29973 | 1800 ft | 227 kts | 43° |
| 2026-05-08 20:13 | 57.73819 | -3.27677 | 2684 ft | 257 kts | 44° |
| 2026-05-08 20:13 | 57.75042 | -3.25223 | 3626 ft | 260 kts | 44° |
| 2026-05-08 20:14 | 57.76291 | -3.22678 | 4588 ft | 267 kts | 45° |
| 2026-05-08 20:14 | 57.77557 | -3.20061 | 5574 ft | 274 kts | 46° |
| 2026-05-08 20:14 | 57.78837 | -3.17373 | 6579 ft | 279 kts | 47° |
| 2026-05-08 20:14 | 57.80162 | -3.14694 | 7137 ft | 287 kts | 44° |
| 2026-05-08 20:15 | 57.81611 | -3.11973 | 7770 ft | 292 kts | 43° |
| 2026-05-08 20:15 | 57.83060 | -3.09312 | 8472 ft | 296 kts | 43° |
| 2026-05-08 20:15 | 57.84534 | -3.06616 | 8613 ft | 295 kts | 45° |
| 2026-05-08 20:15 | 57.85657 | -3.03397 | 8745 ft | 297 kts | 70° |
| 2026-05-08 20:16 | 57.85956 | -2.99602 | 8883 ft | 295 kts | 97° |
| 2026-05-08 20:16 | 57.85374 | -2.95976 | 9019 ft | 288 kts | 123° |
| 2026-05-08 20:16 | 57.84048 | -2.93267 | 9156 ft | 280 kts | 150° |
| 2026-05-08 20:16 | 57.82269 | -2.91979 | 9289 ft | 272 kts | 175° |
| 2026-05-08 20:17 | 57.80405 | -2.92143 | 9430 ft | 267 kts | 197° |
| 2026-05-08 20:17 | 57.78735 | -2.93567 | 9549 ft | 264 kts | 217° |
| 2026-05-08 20:17 | 57.77300 | -2.95720 | 9687 ft | 264 kts | 220° |
| 2026-05-08 20:17 | 57.75860 | -2.97861 | 9823 ft | 264 kts | 219° |
| 2026-05-08 20:18 | 57.74418 | -2.99974 | 10149 ft | 269 kts | 219° |
| 2026-05-08 20:18 | 57.72926 | -3.02143 | 11264 ft | 264 kts | 219° |
| 2026-05-08 20:18 | 57.71504 | -3.04202 | 12575 ft | 262 kts | 219° |
| 2026-05-08 20:18 | 57.70034 | -3.06331 | 13777 ft | 265 kts | 220° |
| 2026-05-08 20:19 | 57.68574 | -3.08445 | 14872 ft | 267 kts | 220° |
| 2026-05-08 20:19 | 57.67122 | -3.10548 | 15924 ft | 269 kts | 220° |
| 2026-05-08 20:19 | 57.65633 | -3.12703 | 17006 ft | 272 kts | 220° |
| 2026-05-08 20:19 | 57.64127 | -3.14880 | 18082 ft | 275 kts | 220° |
| 2026-05-08 20:20 | 57.62589 | -3.17102 | 19078 ft | 278 kts | 220° |
| 2026-05-08 20:20 | 57.61071 | -3.19292 | 20020 ft | 281 kts | 220° |
| 2026-05-08 20:20 | 57.59517 | -3.21531 | 20983 ft | 283 kts | 220° |
| 2026-05-08 20:20 | 57.57947 | -3.23792 | 21924 ft | 287 kts | 220° |
| 2026-05-08 20:21 | 57.56355 | -3.26080 | 22904 ft | 290 kts | 220° |
| 2026-05-08 20:21 | 57.54749 | -3.28389 | 23807 ft | 294 kts | 220° |
| 2026-05-08 20:21 | 57.53120 | -3.30725 | 24609 ft | 297 kts | 220° |
| 2026-05-08 20:21 | 57.51477 | -3.33079 | 25467 ft | 298 kts | 221° |
| 2026-05-08 20:22 | 57.49824 | -3.35442 | 26280 ft | 301 kts | 221° |
| 2026-05-08 20:22 | 57.48152 | -3.37832 | 27075 ft | 305 kts | 221° |
| 2026-05-08 20:22 | 57.46466 | -3.40238 | 27901 ft | 307 kts | 221° |
| 2026-05-08 20:22 | 57.45339 | -3.41845 | 28418 ft | 309 kts | 221° |
| 2026-05-08 20:23 | 57.43036 | -3.45128 | 29473 ft | 314 kts | 222° |
| 2026-05-08 20:23 | 57.41292 | -3.47611 | 30277 ft | 317 kts | 222° |
| 2026-05-08 20:23 | 57.39528 | -3.50118 | 30926 ft | 322 kts | 222° |
| 2026-05-08 20:23 | 57.37735 | -3.52666 | 31568 ft | 327 kts | 223° |
| 2026-05-08 20:24 | 57.35946 | -3.55206 | 32217 ft | 331 kts | 223° |
| 2026-05-08 20:24 | 57.34073 | -3.57859 | 32870 ft | 336 kts | 223° |
| 2026-05-08 20:24 | 57.32204 | -3.60504 | 33528 ft | 341 kts | 223° |
| 2026-05-08 20:24 | 57.30317 | -3.63169 | 34319 ft | 341 kts | 223° |
| 2026-05-08 20:25 | 57.28442 | -3.65815 | 34865 ft | 345 kts | 222° |
| 2026-05-08 20:25 | 57.26520 | -3.68528 | 35345 ft | 350 kts | 222° |
| 2026-05-08 20:25 | 57.24568 | -3.71278 | 35819 ft | 356 kts | 221° |
| 2026-05-08 20:25 | 57.22567 | -3.74089 | 35928 ft | 355 kts | 221° |
| 2026-05-08 20:26 | 57.18688 | -3.79520 | 36117 ft | 354 kts | 221° |
| 2026-05-08 20:26 | 57.14695 | -3.85109 | 36175 ft | 355 kts | 221° |
| 2026-05-08 20:27 | 57.10762 | -3.90598 | 36175 ft | 354 kts | 221° |
| 2026-05-08 20:27 | 57.06832 | -3.96068 | 36178 ft | 354 kts | 221° |
| 2026-05-08 20:28 | 57.02926 | -4.01490 | 36175 ft | 354 kts | 221° |
| 2026-05-08 20:28 | 56.99590 | -4.06108 | 36179 ft | 358 kts | 221° |
| 2026-05-08 20:29 | 56.97692 | -4.08742 | 36181 ft | 374 kts | 221° |
| 2026-05-08 20:29 | 56.95490 | -4.11797 | 36183 ft | 393 kts | 221° |
| 2026-05-08 20:29 | 56.93255 | -4.14887 | 36181 ft | 411 kts | 221° |
| 2026-05-08 20:29 | 56.91045 | -4.18327 | 36178 ft | 421 kts | 227° |
| 2026-05-08 20:30 | 56.87285 | -4.26718 | 36177 ft | 429 kts | 239° |
| 2026-05-08 20:30 | 56.84320 | -4.36153 | 36179 ft | 428 kts | 241° |
| 2026-05-08 20:31 | 56.81376 | -4.45560 | 36182 ft | 427 kts | 241° |
| 2026-05-08 20:31 | 56.74574 | -4.67009 | 36189 ft | 427 kts | 241° |
| 2026-05-08 20:32 | 56.63897 | -5.00144 | 36185 ft | 426 kts | 240° |
| 2026-05-08 20:32 | 56.56005 | -5.24601 | 36195 ft | 427 kts | 240° |
| 2026-05-08 20:33 | 56.51547 | -5.38253 | 36201 ft | 427 kts | 240° |
| 2026-05-08 20:33 | 56.48513 | -5.47487 | 36196 ft | 427 kts | 240° |
| 2026-05-08 20:34 | 56.45469 | -5.56714 | 36199 ft | 427 kts | 240° |
| 2026-05-08 20:35 | 56.40919 | -5.70443 | 36203 ft | 427 kts | 240° |
| 2026-05-08 20:35 | 56.37860 | -5.79634 | 36207 ft | 426 kts | 240° |
| 2026-05-08 20:36 | 56.34794 | -5.88804 | 36211 ft | 427 kts | 240° |
| 2026-05-08 20:36 | 56.31714 | -5.97981 | 36212 ft | 427 kts | 239° |
| 2026-05-08 20:37 | 56.28645 | -6.07094 | 36211 ft | 427 kts | 239° |
| 2026-05-08 20:37 | 56.25555 | -6.16231 | 36215 ft | 427 kts | 239° |
| 2026-05-08 20:38 | 56.22489 | -6.25265 | 36218 ft | 427 kts | 239° |
| 2026-05-08 20:38 | 56.19341 | -6.34505 | 36219 ft | 427 kts | 239° |
| 2026-05-08 20:39 | 56.17142 | -6.44303 | 36218 ft | 428 kts | 259° |
| 2026-05-08 20:39 | 56.16792 | -6.55032 | 36222 ft | 431 kts | 265° |
| 2026-05-08 20:40 | 56.16562 | -6.65789 | 36224 ft | 431 kts | 264° |
| 2026-05-08 20:40 | 56.16212 | -6.76529 | 36226 ft | 431 kts | 263° |
| 2026-05-08 20:41 | 56.15814 | -6.87251 | 36228 ft | 431 kts | 263° |
| 2026-05-08 20:41 | 56.15403 | -6.97987 | 36237 ft | 431 kts | 263° |
| 2026-05-08 20:42 | 56.14982 | -7.08739 | 36230 ft | 432 kts | 263° |
| 2026-05-08 20:42 | 56.14555 | -7.19427 | 36230 ft | 432 kts | 263° |
| 2026-05-08 20:43 | 56.14116 | -7.30194 | 36234 ft | 433 kts | 263° |
| 2026-05-08 20:43 | 56.13667 | -7.40957 | 36235 ft | 433 kts | 263° |
| 2026-05-08 20:44 | 56.13208 | -7.51750 | 36242 ft | 433 kts | 263° |
| 2026-05-08 20:44 | 56.12739 | -7.62542 | 36244 ft | 434 kts | 263° |
| 2026-05-08 20:45 | 56.12260 | -7.73336 | 36245 ft | 434 kts | 263° |
| 2026-05-08 20:45 | 56.11775 | -7.84075 | 36245 ft | 435 kts | 263° |
| 2026-05-08 20:46 | 56.11276 | -7.94896 | 36247 ft | 436 kts | 263° |
| 2026-05-08 20:46 | 56.10765 | -8.05775 | 36248 ft | 436 kts | 263° |
| 2026-05-08 20:47 | 56.10250 | -8.16533 | 36252 ft | 437 kts | 262° |
| 2026-05-08 20:47 | 56.09721 | -8.27388 | 36257 ft | 437 kts | 262° |
| 2026-05-08 20:48 | 56.09181 | -8.38258 | 36254 ft | 438 kts | 262° |
| 2026-05-08 20:48 | 56.08632 | -8.49127 | 36257 ft | 438 kts | 262° |
| 2026-05-08 20:49 | 56.08072 | -8.60017 | 36257 ft | 439 kts | 262° |
| 2026-05-08 20:49 | 56.07503 | -8.70908 | 36264 ft | 439 kts | 262° |
| 2026-05-08 20:50 | 56.06923 | -8.81806 | 36260 ft | 440 kts | 262° |
| 2026-05-08 20:50 | 56.06333 | -8.92715 | 36264 ft | 441 kts | 262° |
| 2026-05-08 20:51 | 56.05735 | -9.03579 | 36264 ft | 441 kts | 262° |
| 2026-05-08 20:51 | 56.05124 | -9.14513 | 36267 ft | 442 kts | 262° |
| 2026-05-08 20:52 | 56.04501 | -9.25470 | 36269 ft | 443 kts | 262° |
| 2026-05-08 20:52 | 56.03869 | -9.36433 | 36272 ft | 443 kts | 262° |
| 2026-05-08 20:53 | 56.03224 | -9.47435 | 36277 ft | 444 kts | 262° |
| 2026-05-08 20:53 | 56.02573 | -9.58359 | 36272 ft | 445 kts | 262° |
| 2026-05-08 20:54 | 56.01908 | -9.69367 | 36273 ft | 446 kts | 262° |
| 2026-05-08 20:54 | 56.01232 | -9.80391 | 36278 ft | 446 kts | 262° |
| 2026-05-08 20:55 | 56.00545 | -9.91436 | 36281 ft | 447 kts | 262° |
| 2026-05-08 20:55 | 56.00023 | -10.02512 | 36290 ft | 450 kts | 268° |
| 2026-05-08 20:56 | 56.00239 | -10.13641 | 36278 ft | 451 kts | 269° |
| 2026-05-08 20:56 | 56.00470 | -10.24856 | 36294 ft | 452 kts | 269° |
| 2026-05-08 20:57 | 56.00681 | -10.36094 | 36295 ft | 452 kts | 269° |
| 2026-05-08 20:57 | 56.00873 | -10.47346 | 36299 ft | 453 kts | 269° |
| 2026-05-08 20:58 | 56.01053 | -10.58613 | 36301 ft | 454 kts | 269° |
| 2026-05-08 20:58 | 56.01221 | -10.69831 | 36293 ft | 454 kts | 269° |
| 2026-05-08 20:59 | 56.01381 | -10.81141 | 36302 ft | 455 kts | 269° |
| 2026-05-08 20:59 | 56.01530 | -10.92479 | 36298 ft | 456 kts | 269° |
| 2026-05-08 21:00 | 56.01669 | -11.03827 | 36307 ft | 457 kts | 269° |
| 2026-05-08 21:00 | 56.01798 | -11.15184 | 36299 ft | 458 kts | 269° |
| 2026-05-08 21:01 | 56.02022 | -11.37757 | 36315 ft | 459 kts | 269° |
| 2026-05-08 21:01 | 56.02209 | -11.60669 | 36319 ft | 461 kts | 269° |
| 2026-05-08 21:02 | 56.02353 | -11.83632 | 36323 ft | 463 kts | 269° |
| 2026-05-08 21:02 | 56.02455 | -12.06685 | 36320 ft | 464 kts | 269° |
| 2026-05-08 21:03 | 56.02501 | -12.23166 | 36326 ft | 465 kts | 269° |
| 2026-05-08 21:03 | 56.02523 | -12.36645 | 36329 ft | 466 kts | 269° |
| 2026-05-08 21:04 | 56.02529 | -12.46360 | 36335 ft | 467 kts | 269° |
| 2026-05-08 21:04 | 56.02527 | -12.57912 | 36345 ft | 467 kts | 269° |
| 2026-05-08 21:05 | 56.02514 | -12.69625 | 36336 ft | 468 kts | 269° |
| 2026-05-08 21:05 | 56.02491 | -12.81216 | 36340 ft | 469 kts | 269° |
| 2026-05-08 21:06 | 56.02455 | -12.92909 | 36339 ft | 470 kts | 269° |
| 2026-05-08 21:06 | 56.02409 | -13.04618 | 36348 ft | 471 kts | 269° |
| 2026-05-08 21:07 | 56.02352 | -13.16343 | 36352 ft | 472 kts | 269° |
| 2026-05-08 21:07 | 56.02283 | -13.28068 | 36342 ft | 472 kts | 269° |
| 2026-05-08 21:08 | 56.02203 | -13.39830 | 36353 ft | 473 kts | 269° |
| 2026-05-08 21:08 | 56.02112 | -13.51545 | 36355 ft | 474 kts | 269° |
| 2026-05-08 21:09 | 56.02010 | -13.63328 | 36350 ft | 474 kts | 269° |
| 2026-05-08 21:09 | 56.01774 | -13.86661 | 36368 ft | 475 kts | 269° |
| 2026-05-08 21:10 | 56.01489 | -14.10358 | 36370 ft | 476 kts | 269° |
| 2026-05-08 21:10 | 56.01239 | -14.28542 | 36365 ft | 477 kts | 269° |
| 2026-05-08 21:11 | 56.01062 | -14.40406 | 36378 ft | 478 kts | 269° |
| 2026-05-08 21:11 | 56.00875 | -14.52206 | 36378 ft | 478 kts | 269° |
| 2026-05-08 21:12 | 56.00675 | -14.64097 | 36381 ft | 479 kts | 269° |
| 2026-05-08 21:12 | 56.00463 | -14.75969 | 36372 ft | 479 kts | 269° |
| 2026-05-08 21:13 | 56.00245 | -14.87658 | 36380 ft | 451 kts | 269° |
| 2026-05-08 21:13 | 56.00140 | -14.93157 | 36385 ft | 435 kts | 269° |
| 2026-05-08 21:13 | 56.00087 | -14.98537 | 36376 ft | 434 kts | 274° |
| 2026-05-08 21:14 | 56.01115 | -15.09426 | 36377 ft | 455 kts | 283° |
| 2026-05-08 21:14 | 56.02484 | -15.20678 | 36396 ft | 471 kts | 283° |
| 2026-05-08 21:14 | 56.03182 | -15.26462 | 36185 ft | 480 kts | 283° |
| 2026-05-08 21:15 | 56.03883 | -15.32303 | 35949 ft | 481 kts | 283° |
| 2026-05-08 21:15 | 56.04579 | -15.38159 | 35707 ft | 482 kts | 283° |
| 2026-05-08 21:15 | 56.05275 | -15.44043 | 35469 ft | 482 kts | 283° |
| 2026-05-08 21:15 | 56.05964 | -15.49909 | 35232 ft | 482 kts | 283° |
| 2026-05-08 21:16 | 56.06651 | -15.55782 | 34999 ft | 483 kts | 283° |
| 2026-05-08 21:16 | 56.07338 | -15.61679 | 34770 ft | 483 kts | 283° |
| 2026-05-08 21:16 | 56.08014 | -15.67510 | 34550 ft | 484 kts | 283° |
| 2026-05-08 21:16 | 56.08695 | -15.73406 | 34298 ft | 484 kts | 283° |
| 2026-05-08 21:17 | 56.09373 | -15.79313 | 34025 ft | 485 kts | 284° |
| 2026-05-08 21:17 | 56.10050 | -15.85242 | 33752 ft | 485 kts | 284° |
| 2026-05-08 21:17 | 56.10726 | -15.91183 | 33482 ft | 486 kts | 284° |
| 2026-05-08 21:17 | 56.11397 | -15.97116 | 33203 ft | 487 kts | 284° |
| 2026-05-08 21:18 | 56.12069 | -16.03076 | 32946 ft | 487 kts | 285° |
| 2026-05-08 21:18 | 56.12737 | -16.09034 | 32677 ft | 488 kts | 285° |
| 2026-05-08 21:18 | 56.13404 | -16.15006 | 32425 ft | 488 kts | 285° |
| 2026-05-08 21:18 | 56.14068 | -16.20975 | 32163 ft | 487 kts | 285° |
| 2026-05-08 21:19 | 56.14725 | -16.26921 | 31907 ft | 485 kts | 285° |
| 2026-05-08 21:19 | 56.15369 | -16.32773 | 31652 ft | 482 kts | 286° |
| 2026-05-08 21:19 | 56.16013 | -16.38656 | 31401 ft | 479 kts | 286° |
| 2026-05-08 21:19 | 56.16652 | -16.44510 | 31156 ft | 477 kts | 287° |
| 2026-05-08 21:20 | 56.17286 | -16.50342 | 30909 ft | 475 kts | 287° |
| 2026-05-08 21:20 | 56.17914 | -16.56153 | 30665 ft | 473 kts | 287° |
| 2026-05-08 21:20 | 56.18536 | -16.61932 | 30408 ft | 471 kts | 287° |
| 2026-05-08 21:20 | 56.19155 | -16.67696 | 30114 ft | 468 kts | 287° |
| 2026-05-08 21:21 | 56.19769 | -16.73435 | 29820 ft | 466 kts | 287° |
| 2026-05-08 21:21 | 56.20377 | -16.79150 | 29527 ft | 464 kts | 287° |
| 2026-05-08 21:21 | 56.20979 | -16.84842 | 29255 ft | 462 kts | 287° |
| 2026-05-08 21:21 | 56.21577 | -16.90525 | 28970 ft | 460 kts | 287° |
| 2026-05-08 21:22 | 56.22160 | -16.96083 | 28680 ft | 458 kts | 287° |
| 2026-05-08 21:22 | 56.22745 | -17.01694 | 28407 ft | 456 kts | 287° |
| 2026-05-08 21:22 | 56.23326 | -17.07296 | 28128 ft | 454 kts | 287° |
| 2026-05-08 21:22 | 56.23903 | -17.12872 | 27857 ft | 452 kts | 287° |
| 2026-05-08 21:23 | 56.24474 | -17.18427 | 27582 ft | 450 kts | 287° |
| 2026-05-08 21:23 | 56.25041 | -17.23964 | 27322 ft | 449 kts | 287° |
| 2026-05-08 21:23 | 56.25602 | -17.29471 | 27053 ft | 447 kts | 287° |
| 2026-05-08 21:23 | 56.26160 | -17.34968 | 26799 ft | 445 kts | 287° |
| 2026-05-08 21:24 | 56.26712 | -17.40431 | 26540 ft | 443 kts | 287° |
| 2026-05-08 21:24 | 56.27260 | -17.45875 | 26284 ft | 442 kts | 287° |
| 2026-05-08 21:24 | 56.27806 | -17.51320 | 26028 ft | 440 kts | 287° |
| 2026-05-08 21:24 | 56.28345 | -17.56725 | 25781 ft | 438 kts | 287° |
| 2026-05-08 21:25 | 56.28880 | -17.62117 | 25528 ft | 436 kts | 287° |
| 2026-05-08 21:25 | 56.29410 | -17.67482 | 25283 ft | 435 kts | 287° |
| 2026-05-08 21:25 | 56.29938 | -17.72848 | 25039 ft | 433 kts | 287° |
| 2026-05-08 21:25 | 56.30453 | -17.78116 | 24797 ft | 432 kts | 287° |
| 2026-05-08 21:26 | 56.30972 | -17.83437 | 24555 ft | 430 kts | 287° |
| 2026-05-08 21:26 | 56.31485 | -17.88736 | 24315 ft | 429 kts | 286° |
| 2026-05-08 21:26 | 56.31995 | -17.94014 | 24075 ft | 427 kts | 286° |
| 2026-05-08 21:26 | 56.32501 | -17.99286 | 23815 ft | 426 kts | 286° |
| 2026-05-08 21:27 | 56.33005 | -18.04560 | 23525 ft | 424 kts | 286° |
| 2026-05-08 21:27 | 56.33503 | -18.09793 | 23237 ft | 422 kts | 286° |
| 2026-05-08 21:27 | 56.33995 | -18.14992 | 22961 ft | 420 kts | 286° |
| 2026-05-08 21:27 | 56.34484 | -18.20177 | 22685 ft | 418 kts | 286° |
| 2026-05-08 21:28 | 56.34967 | -18.25329 | 22412 ft | 416 kts | 286° |
| 2026-05-08 21:28 | 56.35447 | -18.30469 | 22134 ft | 415 kts | 285° |
| 2026-05-08 21:28 | 56.35922 | -18.35588 | 21873 ft | 413 kts | 285° |
| 2026-05-08 21:28 | 56.36395 | -18.40700 | 21611 ft | 412 kts | 285° |
| 2026-05-08 21:29 | 56.36863 | -18.45785 | 21346 ft | 410 kts | 285° |
| 2026-05-08 21:29 | 56.37327 | -18.50852 | 21086 ft | 409 kts | 285° |
| 2026-05-08 21:29 | 56.37781 | -18.55831 | 20830 ft | 407 kts | 285° |
| 2026-05-08 21:29 | 56.38238 | -18.60872 | 20568 ft | 406 kts | 285° |
| 2026-05-08 21:30 | 56.38693 | -18.65898 | 20319 ft | 405 kts | 285° |
| 2026-05-08 21:30 | 56.39143 | -18.70914 | 20069 ft | 404 kts | 285° |
| 2026-05-08 21:30 | 56.39589 | -18.75901 | 19813 ft | 402 kts | 285° |
| 2026-05-08 21:30 | 56.40033 | -18.80883 | 19571 ft | 401 kts | 284° |
| 2026-05-08 21:31 | 56.40473 | -18.85848 | 19323 ft | 400 kts | 284° |
| 2026-05-08 21:31 | 56.40909 | -18.90802 | 19083 ft | 399 kts | 284° |
| 2026-05-08 21:31 | 56.41342 | -18.95735 | 18836 ft | 397 kts | 284° |
| 2026-05-08 21:31 | 56.41772 | -19.00657 | 18566 ft | 396 kts | 284° |
| 2026-05-08 21:32 | 56.42199 | -19.05562 | 18300 ft | 394 kts | 284° |
| 2026-05-08 21:32 | 56.42621 | -19.10442 | 18028 ft | 392 kts | 284° |
| 2026-05-08 21:32 | 56.43040 | -19.15310 | 17747 ft | 390 kts | 283° |
| 2026-05-08 21:32 | 56.43456 | -19.20161 | 17478 ft | 389 kts | 283° |
| 2026-05-08 21:33 | 56.43867 | -19.24972 | 17209 ft | 387 kts | 283° |
| 2026-05-08 21:33 | 56.44274 | -19.29768 | 16940 ft | 385 kts | 283° |
| 2026-05-08 21:33 | 56.44678 | -19.34547 | 16682 ft | 383 kts | 283° |
| 2026-05-08 21:33 | 56.45078 | -19.39306 | 16420 ft | 382 kts | 283° |
| 2026-05-08 21:34 | 56.45474 | -19.44039 | 16161 ft | 380 kts | 283° |
| 2026-05-08 21:34 | 56.45861 | -19.48693 | 15906 ft | 378 kts | 282° |
| 2026-05-08 21:34 | 56.46252 | -19.53405 | 15646 ft | 377 kts | 282° |
| 2026-05-08 21:34 | 56.46638 | -19.58087 | 15395 ft | 375 kts | 282° |
| 2026-05-08 21:35 | 56.47020 | -19.62738 | 15143 ft | 373 kts | 282° |
| 2026-05-08 21:35 | 56.47398 | -19.67375 | 14901 ft | 372 kts | 282° |
| 2026-05-08 21:35 | 56.47773 | -19.71982 | 14654 ft | 371 kts | 282° |
| 2026-05-08 21:35 | 56.48147 | -19.76603 | 14408 ft | 369 kts | 281° |
| 2026-05-08 21:36 | 56.48517 | -19.81197 | 14153 ft | 368 kts | 281° |
| 2026-05-08 21:36 | 56.48886 | -19.85779 | 13874 ft | 366 kts | 281° |
| 2026-05-08 21:36 | 56.49251 | -19.90330 | 13600 ft | 365 kts | 281° |
| 2026-05-08 21:36 | 56.49613 | -19.94858 | 13323 ft | 363 kts | 281° |
| 2026-05-08 21:37 | 56.49969 | -19.99322 | 13052 ft | 361 kts | 281° |
| 2026-05-08 21:37 | 56.50395 | -20.03796 | 12864 ft | 361 kts | 285° |
| 2026-05-08 21:37 | 56.51021 | -20.08211 | 13125 ft | 363 kts | 288° |
| 2026-05-08 21:37 | 56.51701 | -20.12616 | 13930 ft | 364 kts | 289° |
| 2026-05-08 21:38 | 56.52380 | -20.17061 | 14647 ft | 368 kts | 289° |
| 2026-05-08 21:38 | 56.53047 | -20.21568 | 15356 ft | 372 kts | 289° |
| 2026-05-08 21:38 | 56.53707 | -20.26140 | 16061 ft | 376 kts | 289° |
| 2026-05-08 21:38 | 56.54365 | -20.30757 | 16774 ft | 380 kts | 289° |
| 2026-05-08 21:39 | 56.55024 | -20.35431 | 17501 ft | 385 kts | 289° |
| 2026-05-08 21:39 | 56.55689 | -20.40161 | 18234 ft | 389 kts | 289° |
| 2026-05-08 21:39 | 56.56357 | -20.44931 | 18950 ft | 393 kts | 289° |
| 2026-05-08 21:39 | 56.57030 | -20.49759 | 19651 ft | 395 kts | 289° |
| 2026-05-08 21:40 | 56.57705 | -20.54608 | 20373 ft | 398 kts | 290° |
| 2026-05-08 21:40 | 56.58383 | -20.59505 | 21072 ft | 402 kts | 290° |
| 2026-05-08 21:40 | 56.59064 | -20.64447 | 21786 ft | 405 kts | 290° |
| 2026-05-08 21:41 | 56.60436 | -20.74452 | 23227 ft | 412 kts | 290° |
| 2026-05-08 21:41 | 56.61120 | -20.79467 | 23956 ft | 415 kts | 290° |
| 2026-05-08 21:41 | 56.61817 | -20.84594 | 24591 ft | 419 kts | 291° |
| 2026-05-08 21:41 | 56.62514 | -20.89751 | 25241 ft | 421 kts | 291° |
| 2026-05-08 21:42 | 56.63214 | -20.94938 | 25860 ft | 424 kts | 291° |
| 2026-05-08 21:42 | 56.63915 | -21.00157 | 26463 ft | 428 kts | 292° |
| 2026-05-08 21:42 | 56.64624 | -21.05438 | 27059 ft | 431 kts | 292° |
| 2026-05-08 21:42 | 56.65336 | -21.10769 | 27670 ft | 434 kts | 292° |
| 2026-05-08 21:43 | 56.66048 | -21.16121 | 28265 ft | 438 kts | 292° |
| 2026-05-08 21:43 | 56.66766 | -21.21530 | 28854 ft | 441 kts | 292° |
| 2026-05-08 21:43 | 56.67478 | -21.26909 | 29408 ft | 445 kts | 292° |
| 2026-05-08 21:43 | 56.68201 | -21.32401 | 29934 ft | 448 kts | 293° |
| 2026-05-08 21:44 | 56.68928 | -21.37936 | 30384 ft | 451 kts | 293° |
| 2026-05-08 21:44 | 56.69413 | -21.41637 | 30651 ft | 453 kts | 293° |
| 2026-05-08 21:44 | 56.70142 | -21.47226 | 30997 ft | 455 kts | 292° |
| 2026-05-08 21:44 | 56.70871 | -21.52840 | 31310 ft | 458 kts | 292° |
| 2026-05-08 21:45 | 56.71603 | -21.58491 | 31583 ft | 460 kts | 292° |
| 2026-05-08 21:45 | 56.72576 | -21.66044 | 31930 ft | 462 kts | 292° |
| 2026-05-08 21:45 | 56.73071 | -21.69904 | 32087 ft | 463 kts | 292° |
| 2026-05-08 21:45 | 56.73803 | -21.75631 | 32288 ft | 464 kts | 292° |
| 2026-05-08 21:46 | 56.74524 | -21.81290 | 32458 ft | 465 kts | 292° |
| 2026-05-08 21:46 | 56.75253 | -21.87041 | 32528 ft | 465 kts | 292° |
| 2026-05-08 21:46 | 56.76701 | -21.98521 | 32685 ft | 464 kts | 292° |
| 2026-05-08 21:47 | 56.77420 | -22.04256 | 32788 ft | 464 kts | 292° |
| 2026-05-08 21:47 | 56.78137 | -22.09989 | 32897 ft | 463 kts | 292° |
| 2026-05-08 21:47 | 56.78851 | -22.15715 | 33004 ft | 463 kts | 292° |
| 2026-05-08 21:47 | 56.79561 | -22.21439 | 33109 ft | 462 kts | 292° |
| 2026-05-08 21:48 | 56.80267 | -22.27156 | 33221 ft | 461 kts | 292° |
| 2026-05-08 21:48 | 56.80972 | -22.32882 | 33333 ft | 461 kts | 292° |
| 2026-05-08 21:48 | 56.81670 | -22.38578 | 33450 ft | 460 kts | 291° |
| 2026-05-08 21:48 | 56.82367 | -22.44296 | 33552 ft | 460 kts | 291° |
| 2026-05-08 21:49 | 56.83747 | -22.55676 | 33643 ft | 459 kts | 291° |
| 2026-05-08 21:49 | 56.84425 | -22.61297 | 33761 ft | 458 kts | 291° |
| 2026-05-08 21:49 | 56.85106 | -22.66973 | 33873 ft | 457 kts | 291° |
| 2026-05-08 21:50 | 56.85785 | -22.72657 | 33984 ft | 456 kts | 291° |
| 2026-05-08 21:50 | 56.86459 | -22.78319 | 34091 ft | 456 kts | 291° |
| 2026-05-08 21:50 | 56.87129 | -22.83973 | 34200 ft | 455 kts | 291° |
| 2026-05-08 21:50 | 56.87794 | -22.89616 | 34308 ft | 454 kts | 291° |
| 2026-05-08 21:51 | 56.88459 | -22.95272 | 34420 ft | 453 kts | 291° |
| 2026-05-08 21:51 | 56.89118 | -23.00911 | 34538 ft | 453 kts | 291° |
| 2026-05-08 21:51 | 56.90423 | -23.12129 | 34700 ft | 453 kts | 291° |
| 2026-05-08 21:52 | 56.91725 | -23.23419 | 34872 ft | 453 kts | 291° |
| 2026-05-08 21:52 | 56.93016 | -23.34713 | 35026 ft | 453 kts | 291° |
| 2026-05-08 21:53 | 56.94301 | -23.46047 | 35189 ft | 453 kts | 291° |
| 2026-05-08 21:53 | 56.95563 | -23.57281 | 35348 ft | 453 kts | 291° |
| 2026-05-08 21:54 | 56.96824 | -23.68609 | 35505 ft | 453 kts | 290° |
| 2026-05-08 21:54 | 56.98076 | -23.79947 | 35658 ft | 454 kts | 290° |
| 2026-05-08 21:55 | 56.99318 | -23.91304 | 35810 ft | 454 kts | 290° |
| 2026-05-08 21:56 | 57.01155 | -24.08282 | 36029 ft | 454 kts | 290° |
| 2026-05-08 21:56 | 57.02371 | -24.19655 | 36175 ft | 454 kts | 290° |
| 2026-05-08 21:57 | 57.03578 | -24.31045 | 36315 ft | 454 kts | 290° |
| 2026-05-08 21:57 | 57.04778 | -24.42472 | 36450 ft | 455 kts | 290° |
| 2026-05-08 21:58 | 57.05969 | -24.53923 | 36543 ft | 455 kts | 290° |
| 2026-05-08 21:58 | 57.07139 | -24.65292 | 36541 ft | 455 kts | 290° |
| 2026-05-08 21:59 | 57.08309 | -24.76753 | 36542 ft | 455 kts | 290° |
| 2026-05-08 21:59 | 57.09465 | -24.88195 | 36541 ft | 455 kts | 290° |
| 2026-05-08 22:00 | 57.10612 | -24.99652 | 36542 ft | 455 kts | 290° |
| 2026-05-08 22:00 | 57.11749 | -25.11122 | 36539 ft | 455 kts | 290° |
| 2026-05-08 22:01 | 57.12876 | -25.22607 | 36533 ft | 455 kts | 290° |
| 2026-05-08 22:01 | 57.13984 | -25.34006 | 36538 ft | 455 kts | 289° |
| 2026-05-08 22:02 | 57.15090 | -25.45508 | 36545 ft | 455 kts | 289° |
| 2026-05-08 22:02 | 57.16186 | -25.57008 | 36540 ft | 455 kts | 289° |
| 2026-05-08 22:03 | 57.17264 | -25.68443 | 36548 ft | 455 kts | 289° |
| 2026-05-08 22:03 | 57.18339 | -25.79974 | 36539 ft | 455 kts | 289° |
| 2026-05-08 22:04 | 57.19403 | -25.91464 | 36548 ft | 454 kts | 290° |
| 2026-05-08 22:04 | 57.20449 | -26.02893 | 36567 ft | 454 kts | 289° |
| 2026-05-08 22:05 | 57.21488 | -26.14382 | 36551 ft | 454 kts | 289° |
| 2026-05-08 22:05 | 57.22516 | -26.25883 | 36559 ft | 453 kts | 289° |
| 2026-05-08 22:06 | 57.23532 | -26.37360 | 36551 ft | 453 kts | 289° |
| 2026-05-08 22:06 | 57.24538 | -26.48863 | 36574 ft | 452 kts | 289° |
| 2026-05-08 22:07 | 57.25526 | -26.60278 | 36556 ft | 452 kts | 289° |
| 2026-05-08 22:07 | 57.26506 | -26.71730 | 36571 ft | 451 kts | 289° |
| 2026-05-08 22:08 | 57.27478 | -26.83206 | 36561 ft | 451 kts | 289° |
| 2026-05-08 22:08 | 57.28430 | -26.94588 | 36579 ft | 451 kts | 288° |
| 2026-05-08 22:09 | 57.29379 | -27.06052 | 36565 ft | 451 kts | 288° |
| 2026-05-08 22:09 | 57.30316 | -27.17511 | 36588 ft | 450 kts | 288° |
| 2026-05-08 22:10 | 57.31242 | -27.28963 | 36572 ft | 450 kts | 288° |
| 2026-05-08 22:10 | 57.32159 | -27.40443 | 36590 ft | 450 kts | 288° |
| 2026-05-08 22:11 | 57.33064 | -27.51910 | 36575 ft | 450 kts | 288° |
| 2026-05-08 22:11 | 57.33960 | -27.63392 | 36591 ft | 450 kts | 288° |
| 2026-05-08 22:12 | 57.34843 | -27.74849 | 36574 ft | 450 kts | 288° |
| 2026-05-08 22:12 | 57.35715 | -27.86325 | 36592 ft | 450 kts | 288° |
| 2026-05-08 22:13 | 57.36579 | -27.97814 | 36571 ft | 450 kts | 287° |
| 2026-05-08 22:13 | 57.37434 | -28.09331 | 36592 ft | 450 kts | 287° |
| 2026-05-08 22:14 | 57.38278 | -28.20856 | 36579 ft | 450 kts | 287° |
| 2026-05-08 22:14 | 57.39106 | -28.32305 | 36592 ft | 450 kts | 287° |
| 2026-05-08 22:15 | 57.39928 | -28.43824 | 36581 ft | 450 kts | 287° |
| 2026-05-08 22:15 | 57.40741 | -28.55371 | 36591 ft | 450 kts | 287° |
| 2026-05-08 22:16 | 57.41537 | -28.66818 | 36575 ft | 450 kts | 287° |
| 2026-05-08 22:16 | 57.42329 | -28.78381 | 36592 ft | 449 kts | 287° |
| 2026-05-08 22:17 | 57.43103 | -28.89828 | 36579 ft | 449 kts | 287° |
| 2026-05-08 22:17 | 57.43870 | -29.01338 | 36590 ft | 449 kts | 287° |
| 2026-05-08 22:18 | 57.44626 | -29.12837 | 36575 ft | 448 kts | 287° |
| 2026-05-08 22:18 | 57.45370 | -29.24335 | 36590 ft | 448 kts | 286° |
| 2026-05-08 22:19 | 57.46105 | -29.35831 | 36576 ft | 448 kts | 286° |
| 2026-05-08 22:19 | 57.46827 | -29.47314 | 36591 ft | 447 kts | 286° |
| 2026-05-08 22:20 | 57.47538 | -29.58751 | 36577 ft | 447 kts | 286° |
| 2026-05-08 22:20 | 57.48247 | -29.70244 | 36590 ft | 447 kts | 286° |
| 2026-05-08 22:21 | 57.48949 | -29.81738 | 36577 ft | 447 kts | 286° |
| 2026-05-08 22:21 | 57.49640 | -29.93224 | 36589 ft | 447 kts | 285° |
| 2026-05-08 22:22 | 57.50413 | -30.04671 | 36578 ft | 440 kts | 291° |
| 2026-05-08 22:22 | 57.52012 | -30.15492 | 36589 ft | 435 kts | 295° |
| 2026-05-08 22:23 | 57.53687 | -30.26356 | 36570 ft | 437 kts | 294° |
| 2026-05-08 22:23 | 57.55260 | -30.37295 | 36587 ft | 438 kts | 293° |
| 2026-05-08 22:24 | 57.56798 | -30.48279 | 36574 ft | 438 kts | 293° |
| 2026-05-08 22:24 | 57.58317 | -30.59231 | 36587 ft | 439 kts | 292° |
| 2026-05-08 22:25 | 57.59831 | -30.70254 | 36576 ft | 439 kts | 292° |
| 2026-05-08 22:25 | 57.61336 | -30.81304 | 36585 ft | 439 kts | 292° |
| 2026-05-08 22:26 | 57.62833 | -30.92372 | 36569 ft | 439 kts | 292° |
| 2026-05-08 22:26 | 57.64318 | -31.03436 | 36583 ft | 440 kts | 292° |
| 2026-05-08 22:27 | 57.65794 | -31.14515 | 36565 ft | 440 kts | 292° |
| 2026-05-08 22:27 | 57.67257 | -31.25580 | 36577 ft | 440 kts | 292° |
| 2026-05-08 22:28 | 57.68716 | -31.36692 | 36565 ft | 440 kts | 291° |
| 2026-05-08 22:28 | 57.70167 | -31.47829 | 36574 ft | 441 kts | 291° |
| 2026-05-08 22:29 | 57.71600 | -31.58906 | 36563 ft | 441 kts | 291° |
| 2026-05-08 22:29 | 57.73033 | -31.70072 | 36573 ft | 441 kts | 291° |
| 2026-05-08 22:30 | 57.74457 | -31.81254 | 36560 ft | 441 kts | 291° |
| 2026-05-08 22:30 | 57.75872 | -31.92446 | 36573 ft | 443 kts | 291° |
| 2026-05-08 22:31 | 57.77277 | -32.03646 | 36560 ft | 444 kts | 290° |
| 2026-05-08 22:31 | 57.78678 | -32.14910 | 36565 ft | 444 kts | 290° |
| 2026-05-08 22:31 | 57.79365 | -32.20490 | 36344 ft | 434 kts | 290° |
| 2026-05-08 22:32 | 57.80041 | -32.25995 | 36553 ft | 434 kts | 290° |
| 2026-05-08 22:32 | 57.81178 | -32.35245 | 36551 ft | 434 kts | 290° |
| 2026-05-08 22:33 | 57.82520 | -32.46253 | 36553 ft | 435 kts | 290° |
| 2026-05-08 22:33 | 57.83856 | -32.57323 | 36553 ft | 435 kts | 290° |
| 2026-05-08 22:34 | 57.85184 | -32.68409 | 36547 ft | 435 kts | 290° |
| 2026-05-08 22:34 | 57.86502 | -32.79493 | 36546 ft | 435 kts | 289° |
| 2026-05-08 22:35 | 57.87801 | -32.90521 | 36542 ft | 435 kts | 289° |
| 2026-05-08 22:35 | 57.89101 | -33.01632 | 36539 ft | 435 kts | 289° |
| 2026-05-08 22:36 | 57.90392 | -33.12765 | 36536 ft | 435 kts | 289° |
| 2026-05-08 22:36 | 57.91672 | -33.23898 | 36534 ft | 435 kts | 289° |
| 2026-05-08 22:37 | 57.92944 | -33.35050 | 36529 ft | 435 kts | 289° |
| 2026-05-08 22:37 | 57.94205 | -33.46201 | 36522 ft | 435 kts | 288° |
| 2026-05-08 22:38 | 57.95450 | -33.57306 | 36521 ft | 435 kts | 288° |
| 2026-05-08 22:38 | 57.96692 | -33.68476 | 36517 ft | 435 kts | 288° |
| 2026-05-08 22:39 | 57.97924 | -33.79654 | 36519 ft | 435 kts | 288° |
| 2026-05-08 22:39 | 57.99144 | -33.90824 | 36507 ft | 435 kts | 288° |
| 2026-05-08 22:40 | 58.00357 | -34.02019 | 36510 ft | 435 kts | 287° |
| 2026-05-08 22:40 | 58.01552 | -34.13147 | 36498 ft | 436 kts | 287° |
| 2026-05-08 22:41 | 58.02745 | -34.24359 | 36499 ft | 436 kts | 287° |
| 2026-05-08 22:41 | 58.03930 | -34.35596 | 36501 ft | 436 kts | 287° |
| 2026-05-08 22:42 | 58.05104 | -34.46822 | 36488 ft | 436 kts | 287° |
| 2026-05-08 22:42 | 58.06271 | -34.58090 | 36487 ft | 436 kts | 286° |
| 2026-05-08 22:43 | 58.07426 | -34.69348 | 36490 ft | 436 kts | 286° |
| 2026-05-08 22:43 | 58.08565 | -34.80555 | 36488 ft | 436 kts | 286° |
| 2026-05-08 22:44 | 58.09703 | -34.91845 | 36484 ft | 436 kts | 285° |
| 2026-05-08 22:44 | 58.10827 | -35.03115 | 36481 ft | 436 kts | 285° |
| 2026-05-08 22:45 | 58.11942 | -35.14396 | 36475 ft | 436 kts | 285° |
| 2026-05-08 22:45 | 58.13039 | -35.25607 | 36474 ft | 436 kts | 285° |
| 2026-05-08 22:46 | 58.14134 | -35.36894 | 36468 ft | 436 kts | 285° |
| 2026-05-08 22:46 | 58.15219 | -35.48200 | 36460 ft | 435 kts | 284° |
| 2026-05-08 22:47 | 58.16286 | -35.59423 | 36462 ft | 435 kts | 284° |
| 2026-05-08 22:47 | 58.17355 | -35.70775 | 36455 ft | 435 kts | 284° |
| 2026-05-08 22:48 | 58.18399 | -35.81981 | 36451 ft | 434 kts | 284° |
| 2026-05-08 22:48 | 58.19441 | -35.93278 | 36446 ft | 435 kts | 283° |
| 2026-05-08 22:49 | 58.20473 | -36.04578 | 36443 ft | 434 kts | 283° |
| 2026-05-08 22:49 | 58.22000 | -36.21520 | 36438 ft | 434 kts | 283° |
| 2026-05-08 22:50 | 58.23007 | -36.32832 | 36433 ft | 434 kts | 283° |
| 2026-05-08 22:50 | 58.24003 | -36.44148 | 36429 ft | 434 kts | 283° |
| 2026-05-08 22:51 | 58.24989 | -36.55465 | 36427 ft | 434 kts | 282° |
| 2026-05-08 22:51 | 58.25958 | -36.66708 | 36426 ft | 434 kts | 282° |
| 2026-05-08 22:52 | 58.26923 | -36.78025 | 36422 ft | 434 kts | 282° |
| 2026-05-08 22:52 | 58.27879 | -36.89357 | 36411 ft | 434 kts | 282° |
| 2026-05-08 22:53 | 58.28825 | -37.00705 | 36406 ft | 435 kts | 282° |
| 2026-05-08 22:53 | 58.29762 | -37.12068 | 36403 ft | 435 kts | 281° |
| 2026-05-08 22:54 | 58.30690 | -37.23451 | 36401 ft | 435 kts | 281° |
| 2026-05-08 22:54 | 58.31605 | -37.34797 | 36394 ft | 436 kts | 281° |
| 2026-05-08 22:55 | 58.32513 | -37.46197 | 36390 ft | 436 kts | 281° |
| 2026-05-08 22:55 | 58.33414 | -37.57640 | 36383 ft | 437 kts | 281° |
| 2026-05-08 22:56 | 58.34299 | -37.69019 | 36382 ft | 437 kts | 281° |
| 2026-05-08 22:56 | 58.35181 | -37.80486 | 36376 ft | 438 kts | 280° |
| 2026-05-08 22:57 | 58.36055 | -37.91995 | 36370 ft | 438 kts | 280° |
| 2026-05-08 22:57 | 58.36918 | -38.03490 | 36367 ft | 439 kts | 280° |
| 2026-05-08 22:58 | 58.37770 | -38.15002 | 36363 ft | 439 kts | 280° |
| 2026-05-08 22:58 | 58.38614 | -38.26534 | 36357 ft | 439 kts | 279° |
| 2026-05-08 22:59 | 58.39442 | -38.38001 | 36358 ft | 439 kts | 279° |
| 2026-05-08 22:59 | 58.40267 | -38.49567 | 36349 ft | 439 kts | 279° |
| 2026-05-08 23:00 | 58.41080 | -38.61128 | 36342 ft | 440 kts | 279° |
| 2026-05-08 23:00 | 58.41882 | -38.72681 | 36345 ft | 440 kts | 279° |
| 2026-05-08 23:01 | 58.42671 | -38.84194 | 36337 ft | 439 kts | 278° |
| 2026-05-08 23:01 | 58.43452 | -38.95752 | 36330 ft | 439 kts | 278° |
| 2026-05-08 23:02 | 58.44223 | -39.07319 | 36328 ft | 439 kts | 278° |
| 2026-05-08 23:02 | 58.44984 | -39.18899 | 36322 ft | 439 kts | 278° |
| 2026-05-08 23:03 | 58.45733 | -39.30470 | 36316 ft | 438 kts | 278° |
| 2026-05-08 23:03 | 58.46471 | -39.42023 | 36313 ft | 437 kts | 277° |
| 2026-05-08 23:04 | 58.47197 | -39.53562 | 36310 ft | 437 kts | 277° |
| 2026-05-08 23:04 | 58.47914 | -39.65047 | 36302 ft | 437 kts | 277° |
| 2026-05-08 23:05 | 58.48629 | -39.76586 | 36295 ft | 437 kts | 277° |
| 2026-05-08 23:05 | 58.49334 | -39.88133 | 36286 ft | 437 kts | 277° |
| 2026-05-08 23:06 | 58.50028 | -39.99670 | 36277 ft | 437 kts | 277° |
| 2026-05-08 23:06 | 58.51299 | -40.11008 | 36272 ft | 437 kts | 285° |
| 2026-05-08 23:07 | 58.53034 | -40.22091 | 36267 ft | 437 kts | 285° |
| 2026-05-08 23:07 | 58.54675 | -40.33327 | 36670 ft | 444 kts | 287° |
| 2026-05-08 23:08 | 58.55484 | -40.39073 | 36295 ft | 448 kts | 286° |
| 2026-05-08 23:08 | 58.56287 | -40.44822 | 36257 ft | 447 kts | 286° |
| 2026-05-08 23:08 | 58.57888 | -40.56358 | 36252 ft | 447 kts | 286° |
| 2026-05-08 23:09 | 58.59472 | -40.67905 | 36245 ft | 447 kts | 286° |
| 2026-05-08 23:09 | 58.61044 | -40.79465 | 36240 ft | 447 kts | 286° |
| 2026-05-08 23:10 | 58.62603 | -40.91029 | 36239 ft | 448 kts | 285° |
| 2026-05-08 23:10 | 58.64146 | -41.02549 | 36234 ft | 447 kts | 285° |
| 2026-05-08 23:11 | 58.65685 | -41.14134 | 36225 ft | 448 kts | 285° |
| 2026-05-08 23:11 | 58.67213 | -41.25728 | 36220 ft | 447 kts | 285° |
| 2026-05-08 23:12 | 58.68733 | -41.37346 | 36218 ft | 448 kts | 285° |
| 2026-05-08 23:12 | 58.70241 | -41.48962 | 36208 ft | 448 kts | 285° |
| 2026-05-08 23:13 | 58.71731 | -41.60530 | 36205 ft | 448 kts | 284° |
| 2026-05-08 23:13 | 58.73221 | -41.72182 | 36202 ft | 447 kts | 284° |
| 2026-05-08 23:14 | 58.74690 | -41.83776 | 36193 ft | 448 kts | 284° |
| 2026-05-08 23:14 | 58.76158 | -41.95440 | 36185 ft | 447 kts | 284° |
| 2026-05-08 23:15 | 58.77614 | -42.07111 | 36187 ft | 447 kts | 284° |
| 2026-05-08 23:15 | 58.79060 | -42.18790 | 36176 ft | 447 kts | 283° |
| 2026-05-08 23:16 | 58.80486 | -42.30397 | 36169 ft | 447 kts | 283° |
| 2026-05-08 23:16 | 58.81908 | -42.42070 | 36171 ft | 446 kts | 283° |
| 2026-05-08 23:17 | 58.83317 | -42.53739 | 36165 ft | 446 kts | 283° |
| 2026-05-08 23:17 | 58.84479 | -42.63433 | 36166 ft | 445 kts | 283° |
| 2026-05-08 23:18 | 58.85867 | -42.75096 | 36163 ft | 445 kts | 282° |
| 2026-05-08 23:18 | 58.87242 | -42.86748 | 36155 ft | 444 kts | 282° |
| 2026-05-08 23:19 | 58.88607 | -42.98420 | 36151 ft | 444 kts | 282° |
| 2026-05-08 23:19 | 58.89949 | -43.09994 | 36143 ft | 443 kts | 282° |
| 2026-05-08 23:20 | 58.91288 | -43.21639 | 36142 ft | 443 kts | 282° |
| 2026-05-08 23:20 | 58.92618 | -43.33304 | 36135 ft | 443 kts | 282° |
| 2026-05-08 23:21 | 58.93934 | -43.44949 | 36125 ft | 442 kts | 281° |
| 2026-05-08 23:21 | 58.95233 | -43.56540 | 36118 ft | 442 kts | 281° |
| 2026-05-08 23:22 | 58.96526 | -43.68188 | 36112 ft | 442 kts | 281° |
| 2026-05-08 23:22 | 58.97807 | -43.79830 | 36108 ft | 441 kts | 281° |
| 2026-05-08 23:23 | 58.99078 | -43.91484 | 36099 ft | 441 kts | 281° |
| 2026-05-08 23:23 | 59.00331 | -44.03067 | 36090 ft | 441 kts | 280° |
| 2026-05-08 23:24 | 59.01578 | -44.14704 | 36083 ft | 440 kts | 280° |
| 2026-05-08 23:24 | 59.02815 | -44.26361 | 36071 ft | 440 kts | 280° |
| 2026-05-08 23:25 | 59.04039 | -44.38000 | 36061 ft | 440 kts | 280° |
| 2026-05-08 23:25 | 59.05253 | -44.49643 | 36055 ft | 440 kts | 279° |
| 2026-05-08 23:26 | 59.06457 | -44.61310 | 36046 ft | 440 kts | 279° |
| 2026-05-08 23:26 | 59.07642 | -44.72893 | 36038 ft | 439 kts | 279° |
| 2026-05-08 23:27 | 59.08822 | -44.84542 | 36029 ft | 439 kts | 279° |
| 2026-05-08 23:27 | 59.09994 | -44.96214 | 36021 ft | 439 kts | 279° |
| 2026-05-08 23:28 | 59.11154 | -45.07885 | 36013 ft | 440 kts | 278° |
| 2026-05-08 23:28 | 59.12305 | -45.19579 | 36007 ft | 440 kts | 278° |
| 2026-05-08 23:29 | 59.13446 | -45.31291 | 36000 ft | 440 kts | 278° |
| 2026-05-08 23:29 | 59.14578 | -45.43011 | 35996 ft | 440 kts | 278° |
| 2026-05-08 23:30 | 59.15700 | -45.54757 | 35989 ft | 441 kts | 277° |
| 2026-05-08 23:30 | 59.16811 | -45.66505 | 35982 ft | 441 kts | 277° |
| 2026-05-08 23:31 | 59.17905 | -45.78200 | 35980 ft | 441 kts | 277° |
| 2026-05-08 23:31 | 59.18997 | -45.89988 | 35967 ft | 441 kts | 277° |
| 2026-05-08 23:32 | 59.20080 | -46.01797 | 35962 ft | 441 kts | 277° |
| 2026-05-08 23:32 | 59.21150 | -46.13588 | 35955 ft | 441 kts | 276° |
| 2026-05-08 23:33 | 59.22210 | -46.25412 | 35949 ft | 442 kts | 276° |
| 2026-05-08 23:33 | 59.23256 | -46.37189 | 35942 ft | 442 kts | 276° |
| 2026-05-08 23:34 | 59.24296 | -46.49034 | 35936 ft | 442 kts | 276° |
| 2026-05-08 23:34 | 59.25318 | -46.60789 | 35929 ft | 442 kts | 275° |
| 2026-05-08 23:35 | 59.26336 | -46.72648 | 35922 ft | 442 kts | 275° |
| 2026-05-08 23:35 | 59.27343 | -46.84500 | 35916 ft | 442 kts | 275° |
| 2026-05-08 23:36 | 59.28339 | -46.96353 | 35906 ft | 442 kts | 275° |
| 2026-05-08 23:36 | 59.29325 | -47.08226 | 35901 ft | 442 kts | 274° |
| 2026-05-08 23:37 | 59.30299 | -47.20101 | 35894 ft | 442 kts | 274° |
| 2026-05-08 23:37 | 59.31265 | -47.31996 | 35891 ft | 442 kts | 274° |
| 2026-05-08 23:38 | 59.32219 | -47.43908 | 35885 ft | 442 kts | 274° |
| 2026-05-08 23:38 | 59.33156 | -47.55734 | 35880 ft | 442 kts | 273° |
| 2026-05-08 23:39 | 59.34096 | -47.67591 | 35874 ft | 439 kts | 271° |
| 2026-05-08 23:39 | 59.35013 | -47.79451 | 35868 ft | 439 kts | 271° |
| 2026-05-08 23:40 | 59.35917 | -47.91310 | 35865 ft | 439 kts | 271° |
| 2026-05-08 23:40 | 59.36807 | -48.03117 | 35860 ft | 439 kts | 270° |
| 2026-05-08 23:41 | 59.37689 | -48.14969 | 35858 ft | 439 kts | 270° |
| 2026-05-08 23:41 | 59.38562 | -48.26836 | 35848 ft | 439 kts | 270° |
| 2026-05-08 23:42 | 59.39424 | -48.38719 | 35840 ft | 439 kts | 270° |
| 2026-05-08 23:42 | 59.40276 | -48.50611 | 35837 ft | 440 kts | 270° |
| 2026-05-08 23:43 | 59.41109 | -48.62420 | 35831 ft | 440 kts | 269° |
| 2026-05-08 23:43 | 59.41940 | -48.74342 | 35827 ft | 440 kts | 269° |
| 2026-05-08 23:44 | 59.42758 | -48.86257 | 35821 ft | 440 kts | 269° |
| 2026-05-08 23:44 | 59.43565 | -48.98164 | 35814 ft | 440 kts | 269° |
| 2026-05-08 23:45 | 59.44365 | -49.10134 | 35811 ft | 441 kts | 269° |
| 2026-05-08 23:45 | 59.45148 | -49.22022 | 35807 ft | 441 kts | 268° |
| 2026-05-08 23:46 | 59.45927 | -49.34006 | 35801 ft | 441 kts | 268° |
| 2026-05-08 23:46 | 59.46694 | -49.45982 | 35798 ft | 442 kts | 268° |
| 2026-05-08 23:47 | 59.47453 | -49.57987 | 35793 ft | 442 kts | 268° |
| 2026-05-08 23:47 | 59.48207 | -49.69993 | 35790 ft | 442 kts | 268° |
| 2026-05-08 23:48 | 59.48954 | -49.82018 | 35787 ft | 443 kts | 267° |
| 2026-05-08 23:48 | 59.49567 | -49.93959 | 35784 ft | 437 kts | 263° |
| 2026-05-08 23:49 | 59.49360 | -50.05777 | 35784 ft | 427 kts | 255° |
| 2026-05-08 23:49 | 59.48321 | -50.17182 | 35776 ft | 423 kts | 251° |
| 2026-05-08 23:50 | 59.47225 | -50.28553 | 35774 ft | 423 kts | 251° |
| 2026-05-08 23:50 | 59.46128 | -50.39945 | 35770 ft | 423 kts | 251° |
| 2026-05-08 23:51 | 59.45014 | -50.51319 | 35768 ft | 423 kts | 251° |
| 2026-05-08 23:51 | 59.43889 | -50.62608 | 35764 ft | 423 kts | 250° |
| 2026-05-08 23:52 | 59.42744 | -50.73975 | 35762 ft | 423 kts | 250° |
| 2026-05-08 23:52 | 59.41588 | -50.85331 | 35758 ft | 423 kts | 250° |
| 2026-05-08 23:53 | 59.40425 | -50.96662 | 35758 ft | 423 kts | 250° |
| 2026-05-08 23:53 | 59.39260 | -51.07909 | 35759 ft | 423 kts | 250° |
| 2026-05-08 23:54 | 59.38075 | -51.19245 | 35757 ft | 423 kts | 249° |
| 2026-05-08 23:55 | 59.36279 | -51.36234 | 35757 ft | 424 kts | 249° |
| 2026-05-08 23:55 | 59.35069 | -51.47554 | 35753 ft | 424 kts | 249° |
| 2026-05-08 23:56 | 59.33859 | -51.58779 | 35749 ft | 424 kts | 249° |
| 2026-05-08 23:56 | 59.32627 | -51.70104 | 35749 ft | 424 kts | 249° |
| 2026-05-08 23:57 | 59.31389 | -51.81391 | 35745 ft | 424 kts | 249° |
| 2026-05-08 23:57 | 59.30138 | -51.92699 | 35745 ft | 424 kts | 248° |
| 2026-05-08 23:58 | 59.28885 | -52.03923 | 35747 ft | 425 kts | 248° |
| 2026-05-08 23:58 | 59.27616 | -52.15206 | 35744 ft | 425 kts | 248° |
| 2026-05-08 23:59 | 59.26336 | -52.26480 | 35745 ft | 425 kts | 248° |
| 2026-05-08 23:59 | 59.25045 | -52.37760 | 35739 ft | 425 kts | 248° |
| 2026-05-09 00:00 | 59.23745 | -52.49025 | 35740 ft | 425 kts | 248° |
| 2026-05-09 00:00 | 59.22435 | -52.60290 | 35738 ft | 426 kts | 247° |
| 2026-05-09 00:01 | 59.21112 | -52.71563 | 35738 ft | 426 kts | 247° |
| 2026-05-09 00:01 | 59.19779 | -52.82830 | 35737 ft | 426 kts | 247° |
| 2026-05-09 00:02 | 59.18435 | -52.94105 | 35730 ft | 427 kts | 247° |
| 2026-05-09 00:02 | 59.17089 | -53.05306 | 35733 ft | 427 kts | 246° |
| 2026-05-09 00:03 | 59.15724 | -53.16577 | 35731 ft | 427 kts | 246° |
| 2026-05-09 00:03 | 59.14350 | -53.27839 | 35726 ft | 427 kts | 246° |
| 2026-05-09 00:04 | 59.12964 | -53.39097 | 35729 ft | 427 kts | 246° |
| 2026-05-09 00:04 | 59.11569 | -53.50344 | 35727 ft | 428 kts | 246° |
| 2026-05-09 00:05 | 59.10400 | -53.59705 | 35726 ft | 428 kts | 246° |
| 2026-05-09 00:05 | 59.08983 | -53.70964 | 35723 ft | 428 kts | 246° |
| 2026-05-09 00:06 | 59.07552 | -53.82252 | 35722 ft | 429 kts | 245° |
| 2026-05-09 00:06 | 59.06114 | -53.93515 | 35710 ft | 429 kts | 245° |
| 2026-05-09 00:07 | 59.04667 | -54.04755 | 35715 ft | 429 kts | 245° |
| 2026-05-09 00:07 | 59.03220 | -54.15918 | 35712 ft | 429 kts | 245° |
| 2026-05-09 00:08 | 59.01752 | -54.27150 | 35710 ft | 429 kts | 245° |
| 2026-05-09 00:08 | 59.00272 | -54.38394 | 35709 ft | 429 kts | 245° |
| 2026-05-09 00:09 | 58.98784 | -54.49619 | 35706 ft | 429 kts | 244° |
| 2026-05-09 00:09 | 58.97285 | -54.60840 | 35705 ft | 429 kts | 244° |
| 2026-05-09 00:10 | 58.95785 | -54.71983 | 35701 ft | 429 kts | 244° |
| 2026-05-09 00:10 | 58.94267 | -54.83180 | 35691 ft | 430 kts | 244° |
| 2026-05-09 00:11 | 58.92737 | -54.94385 | 35695 ft | 430 kts | 244° |
| 2026-05-09 00:11 | 58.91198 | -55.05572 | 35696 ft | 430 kts | 244° |
| 2026-05-09 00:12 | 58.89649 | -55.16756 | 35689 ft | 430 kts | 244° |
| 2026-05-09 00:12 | 58.88091 | -55.27926 | 35687 ft | 430 kts | 244° |
| 2026-05-09 00:13 | 58.86532 | -55.39021 | 35683 ft | 431 kts | 244° |
| 2026-05-09 00:13 | 58.84951 | -55.50194 | 35680 ft | 431 kts | 243° |
| 2026-05-09 00:14 | 58.83360 | -55.61355 | 35678 ft | 431 kts | 243° |
| 2026-05-09 00:14 | 58.81758 | -55.72521 | 35674 ft | 431 kts | 243° |
| 2026-05-09 00:15 | 58.80147 | -55.83672 | 35669 ft | 432 kts | 243° |
| 2026-05-09 00:15 | 58.78519 | -55.94859 | 35672 ft | 433 kts | 243° |
| 2026-05-09 00:16 | 58.76891 | -56.05964 | 35667 ft | 434 kts | 243° |
| 2026-05-09 00:16 | 58.75238 | -56.17172 | 35662 ft | 435 kts | 243° |
| 2026-05-09 00:17 | 58.73574 | -56.28381 | 35665 ft | 436 kts | 243° |
| 2026-05-09 00:17 | 58.71896 | -56.39608 | 35658 ft | 437 kts | 243° |
| 2026-05-09 00:18 | 58.70205 | -56.50843 | 35661 ft | 437 kts | 243° |
| 2026-05-09 00:18 | 58.68509 | -56.62037 | 35654 ft | 438 kts | 243° |
| 2026-05-09 00:19 | 58.66790 | -56.73303 | 35654 ft | 439 kts | 243° |
| 2026-05-09 00:19 | 58.65056 | -56.84592 | 35653 ft | 440 kts | 243° |
| 2026-05-09 00:20 | 58.63323 | -56.95801 | 35654 ft | 441 kts | 243° |
| 2026-05-09 00:20 | 58.61564 | -57.07100 | 35652 ft | 443 kts | 244° |
| 2026-05-09 00:21 | 58.59788 | -57.18436 | 35640 ft | 444 kts | 244° |
| 2026-05-09 00:21 | 58.57998 | -57.29787 | 35647 ft | 445 kts | 244° |
| 2026-05-09 00:22 | 58.56201 | -57.41109 | 35649 ft | 446 kts | 244° |
| 2026-05-09 00:22 | 58.54384 | -57.52486 | 35648 ft | 448 kts | 244° |
| 2026-05-09 00:23 | 58.52547 | -57.63903 | 35645 ft | 448 kts | 244° |
| 2026-05-09 00:23 | 58.50704 | -57.75317 | 35642 ft | 449 kts | 244° |
| 2026-05-09 00:24 | 58.48851 | -57.86747 | 35645 ft | 450 kts | 244° |
| 2026-05-09 00:24 | 58.46988 | -57.98190 | 35644 ft | 452 kts | 245° |
| 2026-05-09 00:24 | 58.46370 | -58.04167 | 35647 ft | 465 kts | 254° |
| 2026-05-09 00:25 | 58.46044 | -58.10332 | 35645 ft | 467 kts | 255° |
| 2026-05-09 00:25 | 58.45479 | -58.22735 | 35644 ft | 468 kts | 256° |
| 2026-05-09 00:26 | 58.44887 | -58.35050 | 35644 ft | 469 kts | 255° |
| 2026-05-09 00:26 | 58.44260 | -58.47446 | 35646 ft | 469 kts | 255° |
| 2026-05-09 00:27 | 58.43611 | -58.59866 | 35643 ft | 470 kts | 255° |
| 2026-05-09 00:27 | 58.42943 | -58.72277 | 35643 ft | 470 kts | 256° |
| 2026-05-09 00:28 | 58.42262 | -58.84697 | 35636 ft | 471 kts | 256° |
| 2026-05-09 00:28 | 58.41566 | -58.97130 | 35639 ft | 472 kts | 256° |
| 2026-05-09 00:29 | 58.40858 | -59.09583 | 35639 ft | 473 kts | 256° |
| 2026-05-09 00:29 | 58.40135 | -59.22076 | 35640 ft | 474 kts | 256° |
| 2026-05-09 00:30 | 58.39404 | -59.34505 | 35637 ft | 475 kts | 256° |
| 2026-05-09 00:30 | 58.38654 | -59.47034 | 35635 ft | 476 kts | 256° |
| 2026-05-09 00:31 | 58.37889 | -59.59601 | 35635 ft | 477 kts | 256° |
| 2026-05-09 00:31 | 58.37112 | -59.72151 | 35633 ft | 478 kts | 256° |
| 2026-05-09 00:32 | 58.36321 | -59.84736 | 35633 ft | 479 kts | 256° |
| 2026-05-09 00:32 | 58.35517 | -59.97347 | 35633 ft | 479 kts | 256° |
| 2026-05-09 00:33 | 58.34699 | -60.09952 | 35634 ft | 480 kts | 256° |
| 2026-05-09 00:33 | 58.33872 | -60.22503 | 35634 ft | 481 kts | 256° |
| 2026-05-09 00:34 | 58.33026 | -60.35154 | 35631 ft | 481 kts | 256° |
| 2026-05-09 00:34 | 58.32167 | -60.47807 | 35623 ft | 482 kts | 256° |
| 2026-05-09 00:35 | 58.31293 | -60.60486 | 35630 ft | 483 kts | 256° |
| 2026-05-09 00:35 | 58.30405 | -60.73170 | 35633 ft | 484 kts | 256° |
| 2026-05-09 00:36 | 58.29511 | -60.85769 | 35631 ft | 484 kts | 256° |
| 2026-05-09 00:36 | 58.28598 | -60.98449 | 35631 ft | 485 kts | 256° |
| 2026-05-09 00:37 | 58.27670 | -61.11157 | 35625 ft | 485 kts | 256° |
| 2026-05-09 00:37 | 58.26729 | -61.23863 | 35627 ft | 486 kts | 256° |
| 2026-05-09 00:38 | 58.25773 | -61.36597 | 35624 ft | 486 kts | 256° |
| 2026-05-09 00:38 | 58.24805 | -61.49313 | 35626 ft | 487 kts | 256° |
| 2026-05-09 00:39 | 58.23821 | -61.62055 | 35630 ft | 487 kts | 256° |
| 2026-05-09 00:39 | 58.22826 | -61.74787 | 35627 ft | 487 kts | 256° |
| 2026-05-09 00:40 | 58.21824 | -61.87433 | 35636 ft | 488 kts | 256° |
| 2026-05-09 00:40 | 58.20801 | -62.00168 | 35634 ft | 488 kts | 256° |
| 2026-05-09 00:41 | 58.19245 | -62.19247 | 35633 ft | 488 kts | 256° |
| 2026-05-09 00:41 | 58.18190 | -62.31969 | 35634 ft | 489 kts | 256° |
| 2026-05-09 00:42 | 58.17121 | -62.44704 | 35637 ft | 489 kts | 256° |
| 2026-05-09 00:42 | 58.16038 | -62.57456 | 35635 ft | 490 kts | 256° |
| 2026-05-09 00:43 | 58.14942 | -62.70199 | 35635 ft | 490 kts | 256° |
| 2026-05-09 00:43 | 58.13839 | -62.82861 | 35636 ft | 490 kts | 256° |
| 2026-05-09 00:44 | 58.12716 | -62.95595 | 35644 ft | 491 kts | 256° |
| 2026-05-09 00:44 | 58.11581 | -63.08331 | 35652 ft | 490 kts | 256° |
| 2026-05-09 00:45 | 58.10432 | -63.21073 | 35652 ft | 490 kts | 256° |
| 2026-05-09 00:45 | 58.09269 | -63.33801 | 35668 ft | 491 kts | 256° |
| 2026-05-09 00:46 | 58.08104 | -63.46424 | 35670 ft | 491 kts | 256° |
| 2026-05-09 00:46 | 58.07114 | -63.57037 | 35674 ft | 491 kts | 256° |
| 2026-05-09 00:47 | 58.05915 | -63.69758 | 35681 ft | 492 kts | 256° |
| 2026-05-09 00:47 | 58.04705 | -63.82462 | 35690 ft | 492 kts | 256° |
| 2026-05-09 00:48 | 58.03480 | -63.95170 | 35695 ft | 492 kts | 256° |
| 2026-05-09 00:48 | 58.02240 | -64.07899 | 35697 ft | 492 kts | 256° |
| 2026-05-09 00:49 | 58.00997 | -64.20517 | 35707 ft | 492 kts | 256° |
| 2026-05-09 00:49 | 57.99733 | -64.33213 | 35705 ft | 493 kts | 256° |
| 2026-05-09 00:50 | 57.98457 | -64.45898 | 35709 ft | 493 kts | 256° |
| 2026-05-09 00:50 | 57.97162 | -64.58627 | 35705 ft | 493 kts | 256° |
| 2026-05-09 00:51 | 57.95857 | -64.71326 | 35718 ft | 493 kts | 256° |
| 2026-05-09 00:51 | 57.94538 | -64.84023 | 35715 ft | 494 kts | 256° |
| 2026-05-09 00:52 | 57.93217 | -64.96617 | 35711 ft | 494 kts | 256° |
| 2026-05-09 00:52 | 57.91871 | -65.09315 | 35728 ft | 494 kts | 256° |
| 2026-05-09 00:53 | 57.90512 | -65.22012 | 35719 ft | 495 kts | 256° |
| 2026-05-09 00:53 | 57.89141 | -65.34685 | 35721 ft | 495 kts | 255° |
| 2026-05-09 00:54 | 57.87755 | -65.47370 | 35724 ft | 495 kts | 255° |
| 2026-05-09 00:54 | 57.86353 | -65.60081 | 35722 ft | 495 kts | 255° |
| 2026-05-09 00:55 | 57.84944 | -65.72726 | 35725 ft | 495 kts | 255° |
| 2026-05-09 00:55 | 57.83516 | -65.85425 | 35722 ft | 496 kts | 255° |
| 2026-05-09 00:56 | 57.82090 | -65.97977 | 35728 ft | 496 kts | 255° |
| 2026-05-09 00:56 | 57.80640 | -66.10630 | 35726 ft | 496 kts | 255° |
| 2026-05-09 00:57 | 57.79176 | -66.23275 | 35725 ft | 496 kts | 255° |
| 2026-05-09 00:57 | 57.77700 | -66.35912 | 35723 ft | 496 kts | 255° |
| 2026-05-09 00:58 | 57.76209 | -66.48555 | 35725 ft | 497 kts | 255° |
| 2026-05-09 00:58 | 57.74708 | -66.61166 | 35724 ft | 497 kts | 255° |
| 2026-05-09 00:59 | 57.73198 | -66.73792 | 35725 ft | 497 kts | 255° |
| 2026-05-09 00:59 | 57.71679 | -66.86424 | 35729 ft | 497 kts | 255° |
| 2026-05-09 01:00 | 57.70148 | -66.99048 | 35731 ft | 497 kts | 255° |
| 2026-05-09 01:00 | 57.67811 | -67.11088 | 35729 ft | 492 kts | 237° |
| 2026-05-09 01:01 | 57.65789 | -67.16210 | 35729 ft | 489 kts | 225° |
| 2026-05-09 01:01 | 57.63297 | -67.20434 | 35728 ft | 487 kts | 214° |
| 2026-05-09 01:01 | 57.60380 | -67.23679 | 35726 ft | 485 kts | 203° |
| 2026-05-09 01:01 | 57.57223 | -67.25825 | 35735 ft | 484 kts | 195° |
| 2026-05-09 01:02 | 57.50713 | -67.29022 | 35735 ft | 483 kts | 193° |
| 2026-05-09 01:02 | 57.44187 | -67.32050 | 35735 ft | 483 kts | 193° |
| 2026-05-09 01:03 | 57.37699 | -67.35048 | 35736 ft | 483 kts | 193° |
| 2026-05-09 01:03 | 57.31178 | -67.38056 | 35735 ft | 482 kts | 193° |
| 2026-05-09 01:04 | 57.24659 | -67.41069 | 35735 ft | 482 kts | 195° |
| 2026-05-09 01:04 | 57.21517 | -67.43255 | 35740 ft | 484 kts | 206° |
| 2026-05-09 01:04 | 57.18658 | -67.46558 | 35740 ft | 486 kts | 217° |
| 2026-05-09 01:05 | 57.16200 | -67.50852 | 35740 ft | 489 kts | 228° |
| 2026-05-09 01:05 | 57.14243 | -67.55957 | 35739 ft | 492 kts | 239° |
| 2026-05-09 01:05 | 57.12084 | -67.67953 | 35738 ft | 499 kts | 261° |
| 2026-05-09 01:06 | 57.11985 | -67.74354 | 35738 ft | 502 kts | 271° |
| 2026-05-09 01:06 | 57.12179 | -67.87131 | 35737 ft | 500 kts | 264° |
| 2026-05-09 01:07 | 57.11219 | -67.99771 | 35736 ft | 498 kts | 257° |
| 2026-05-09 01:07 | 57.09752 | -68.12229 | 35736 ft | 498 kts | 255° |
| 2026-05-09 01:08 | 57.08208 | -68.24652 | 35736 ft | 498 kts | 255° |
| 2026-05-09 01:08 | 57.06664 | -68.37070 | 35737 ft | 498 kts | 255° |
| 2026-05-09 01:09 | 57.05123 | -68.49399 | 35739 ft | 498 kts | 255° |
| 2026-05-09 01:09 | 57.03560 | -68.61811 | 35739 ft | 498 kts | 255° |
| 2026-05-09 01:10 | 57.01984 | -68.74218 | 35740 ft | 498 kts | 255° |
| 2026-05-09 01:10 | 57.00398 | -68.86596 | 35739 ft | 498 kts | 255° |
| 2026-05-09 01:11 | 56.98800 | -68.98958 | 35738 ft | 498 kts | 255° |
| 2026-05-09 01:11 | 56.97200 | -69.11238 | 35739 ft | 498 kts | 255° |
| 2026-05-09 01:12 | 56.95576 | -69.23590 | 35739 ft | 498 kts | 255° |
| 2026-05-09 01:12 | 56.93940 | -69.35935 | 35739 ft | 498 kts | 254° |
| 2026-05-09 01:13 | 56.92294 | -69.48252 | 35741 ft | 498 kts | 254° |
| 2026-05-09 01:13 | 56.90635 | -69.60572 | 35740 ft | 498 kts | 254° |
| 2026-05-09 01:14 | 56.88973 | -69.72812 | 35739 ft | 498 kts | 254° |
| 2026-05-09 01:14 | 56.87289 | -69.85117 | 35744 ft | 498 kts | 254° |
| 2026-05-09 01:15 | 56.85592 | -69.97406 | 35741 ft | 498 kts | 254° |
| 2026-05-09 01:15 | 56.83883 | -70.09687 | 35744 ft | 498 kts | 254° |
| 2026-05-09 01:16 | 56.82162 | -70.21951 | 35739 ft | 498 kts | 254° |
| 2026-05-09 01:16 | 56.80431 | -70.34193 | 35742 ft | 498 kts | 254° |
| 2026-05-09 01:17 | 56.77832 | -70.52410 | 35739 ft | 498 kts | 253° |
| 2026-05-09 01:17 | 56.76065 | -70.64679 | 35738 ft | 498 kts | 253° |
| 2026-05-09 01:18 | 56.74293 | -70.76879 | 35738 ft | 498 kts | 253° |
| 2026-05-09 01:18 | 56.72506 | -70.89084 | 35738 ft | 498 kts | 253° |
| 2026-05-09 01:19 | 56.70710 | -71.01261 | 35735 ft | 498 kts | 253° |
| 2026-05-09 01:19 | 56.68902 | -71.13424 | 35735 ft | 498 kts | 253° |
| 2026-05-09 01:20 | 56.67084 | -71.25565 | 35731 ft | 498 kts | 253° |
| 2026-05-09 01:20 | 56.65263 | -71.37640 | 35731 ft | 498 kts | 253° |
| 2026-05-09 01:21 | 56.63417 | -71.49790 | 35733 ft | 498 kts | 253° |
| 2026-05-09 01:21 | 56.61561 | -71.61913 | 35733 ft | 498 kts | 253° |
| 2026-05-09 01:22 | 56.59693 | -71.74020 | 35730 ft | 498 kts | 253° |
| 2026-05-09 01:22 | 56.57811 | -71.86141 | 35721 ft | 498 kts | 253° |
| 2026-05-09 01:23 | 56.55928 | -71.98171 | 35716 ft | 498 kts | 252° |
| 2026-05-09 01:23 | 56.54023 | -72.10259 | 35717 ft | 498 kts | 252° |
| 2026-05-09 01:24 | 56.52106 | -72.22339 | 35717 ft | 498 kts | 252° |
| 2026-05-09 01:24 | 56.50173 | -72.34423 | 35711 ft | 498 kts | 252° |
| 2026-05-09 01:25 | 56.48244 | -72.46402 | 35710 ft | 499 kts | 252° |
| 2026-05-09 01:25 | 56.46291 | -72.58451 | 35703 ft | 498 kts | 252° |
| 2026-05-09 01:26 | 56.44328 | -72.70476 | 35701 ft | 498 kts | 252° |
| 2026-05-09 01:26 | 56.42354 | -72.82485 | 35702 ft | 498 kts | 252° |
| 2026-05-09 01:27 | 56.40365 | -72.94497 | 35697 ft | 498 kts | 252° |
| 2026-05-09 01:27 | 56.38368 | -73.06476 | 35688 ft | 499 kts | 252° |
| 2026-05-09 01:28 | 56.36696 | -73.16443 | 35689 ft | 499 kts | 252° |
| 2026-05-09 01:28 | 56.34675 | -73.28415 | 35686 ft | 499 kts | 252° |
| 2026-05-09 01:29 | 56.32640 | -73.40395 | 35681 ft | 499 kts | 251° |
| 2026-05-09 01:29 | 56.30598 | -73.52333 | 35676 ft | 498 kts | 251° |
| 2026-05-09 01:30 | 56.28558 | -73.64181 | 35675 ft | 499 kts | 251° |
| 2026-05-09 01:30 | 56.26493 | -73.76091 | 35676 ft | 499 kts | 251° |
| 2026-05-09 01:31 | 56.24416 | -73.87996 | 35677 ft | 499 kts | 251° |
| 2026-05-09 01:31 | 56.22325 | -73.99901 | 35669 ft | 499 kts | 251° |
| 2026-05-09 01:32 | 56.20223 | -74.11793 | 35668 ft | 499 kts | 251° |
| 2026-05-09 01:32 | 56.18110 | -74.23665 | 35667 ft | 499 kts | 251° |
| 2026-05-09 01:33 | 56.15986 | -74.35520 | 35666 ft | 499 kts | 251° |
| 2026-05-09 01:33 | 56.13864 | -74.47296 | 35663 ft | 499 kts | 251° |
| 2026-05-09 01:34 | 56.11719 | -74.59123 | 35662 ft | 498 kts | 251° |
| 2026-05-09 01:34 | 56.09562 | -74.70939 | 35662 ft | 498 kts | 251° |
| 2026-05-09 01:35 | 56.07393 | -74.82747 | 35662 ft | 498 kts | 251° |
| 2026-05-09 01:35 | 56.05218 | -74.94512 | 35661 ft | 498 kts | 251° |
| 2026-05-09 01:36 | 56.03033 | -75.06263 | 35657 ft | 498 kts | 251° |
| 2026-05-09 01:36 | 56.00834 | -75.18008 | 35655 ft | 498 kts | 250° |
| 2026-05-09 01:37 | 55.98621 | -75.29750 | 35656 ft | 498 kts | 250° |
| 2026-05-09 01:37 | 55.96411 | -75.41404 | 35658 ft | 498 kts | 250° |
| 2026-05-09 01:38 | 55.94174 | -75.53135 | 35661 ft | 498 kts | 250° |
| 2026-05-09 01:38 | 55.91931 | -75.64826 | 35666 ft | 498 kts | 250° |
| 2026-05-09 01:39 | 55.89676 | -75.76509 | 35657 ft | 498 kts | 250° |
| 2026-05-09 01:39 | 55.87419 | -75.88130 | 35663 ft | 498 kts | 250° |
| 2026-05-09 01:40 | 55.85142 | -75.99778 | 35664 ft | 498 kts | 250° |
| 2026-05-09 01:40 | 55.82853 | -76.11423 | 35673 ft | 498 kts | 250° |
| 2026-05-09 01:41 | 55.80549 | -76.23073 | 35674 ft | 498 kts | 250° |
| 2026-05-09 01:41 | 55.78240 | -76.34680 | 35675 ft | 498 kts | 250° |
| 2026-05-09 01:42 | 55.75928 | -76.46233 | 35670 ft | 498 kts | 250° |
| 2026-05-09 01:42 | 55.73599 | -76.57803 | 35677 ft | 498 kts | 250° |
| 2026-05-09 01:43 | 55.71253 | -76.69390 | 35674 ft | 498 kts | 249° |
| 2026-05-09 01:43 | 55.68898 | -76.80953 | 35680 ft | 498 kts | 249° |
| 2026-05-09 01:44 | 55.66529 | -76.92521 | 35678 ft | 498 kts | 249° |
| 2026-05-09 01:44 | 55.64153 | -77.04053 | 35678 ft | 498 kts | 249° |
| 2026-05-09 01:45 | 55.61767 | -77.15569 | 35677 ft | 498 kts | 249° |
| 2026-05-09 01:45 | 55.59369 | -77.27069 | 35675 ft | 498 kts | 249° |
| 2026-05-09 01:46 | 55.56976 | -77.38484 | 35681 ft | 498 kts | 249° |
| 2026-05-09 01:46 | 55.54557 | -77.49959 | 35680 ft | 498 kts | 249° |
| 2026-05-09 01:47 | 55.52129 | -77.61416 | 35672 ft | 498 kts | 249° |
| 2026-05-09 01:47 | 55.49688 | -77.72865 | 35674 ft | 498 kts | 249° |
| 2026-05-09 01:48 | 55.47233 | -77.84314 | 35675 ft | 498 kts | 249° |
| 2026-05-09 01:48 | 55.44772 | -77.95731 | 35682 ft | 498 kts | 249° |
| 2026-05-09 01:49 | 55.42300 | -78.07134 | 35679 ft | 498 kts | 249° |
| 2026-05-09 01:49 | 55.39836 | -78.18441 | 35680 ft | 498 kts | 249° |
| 2026-05-09 01:50 | 55.37345 | -78.29804 | 35684 ft | 498 kts | 248° |
| 2026-05-09 01:50 | 55.34846 | -78.41141 | 35685 ft | 498 kts | 248° |
| 2026-05-09 01:51 | 55.32331 | -78.52494 | 35687 ft | 497 kts | 248° |
| 2026-05-09 01:51 | 55.29810 | -78.63810 | 35677 ft | 497 kts | 248° |
| 2026-05-09 01:52 | 55.27281 | -78.75103 | 35673 ft | 497 kts | 248° |
| 2026-05-09 01:52 | 55.24762 | -78.86292 | 35674 ft | 496 kts | 248° |
| 2026-05-09 01:53 | 55.22220 | -78.97523 | 35674 ft | 496 kts | 248° |
| 2026-05-09 01:53 | 55.19663 | -79.08755 | 35671 ft | 496 kts | 248° |
| 2026-05-09 01:54 | 55.17098 | -79.19963 | 35673 ft | 495 kts | 248° |
| 2026-05-09 01:54 | 55.14528 | -79.31137 | 35672 ft | 495 kts | 248° |
| 2026-05-09 01:55 | 55.11949 | -79.42289 | 35672 ft | 494 kts | 248° |
| 2026-05-09 01:55 | 55.09359 | -79.53434 | 35671 ft | 494 kts | 248° |
| 2026-05-09 01:56 | 55.06764 | -79.64543 | 35672 ft | 494 kts | 248° |
| 2026-05-09 01:56 | 55.04171 | -79.75584 | 35670 ft | 494 kts | 248° |
| 2026-05-09 01:57 | 55.01553 | -79.86667 | 35664 ft | 493 kts | 248° |
| 2026-05-09 01:57 | 54.98929 | -79.97727 | 35663 ft | 493 kts | 248° |
| 2026-05-09 01:58 | 54.96298 | -80.08755 | 35665 ft | 493 kts | 247° |
| 2026-05-09 01:58 | 54.93672 | -80.19706 | 35661 ft | 493 kts | 247° |
| 2026-05-09 01:59 | 54.91026 | -80.30685 | 35660 ft | 492 kts | 247° |
| 2026-05-09 01:59 | 54.88364 | -80.41676 | 35661 ft | 493 kts | 247° |
| 2026-05-09 02:00 | 54.85694 | -80.52639 | 35658 ft | 493 kts | 247° |
| 2026-05-09 02:00 | 54.83013 | -80.63594 | 35653 ft | 493 kts | 247° |
| 2026-05-09 02:01 | 54.80321 | -80.74541 | 35649 ft | 493 kts | 247° |
| 2026-05-09 02:01 | 54.77621 | -80.85465 | 35650 ft | 493 kts | 247° |
| 2026-05-09 02:02 | 54.74903 | -80.96403 | 35649 ft | 493 kts | 247° |
| 2026-05-09 02:02 | 54.72182 | -81.07303 | 35648 ft | 493 kts | 247° |
| 2026-05-09 02:03 | 54.69451 | -81.18188 | 35647 ft | 493 kts | 246° |
| 2026-05-09 02:03 | 54.66728 | -81.28992 | 35652 ft | 493 kts | 246° |
| 2026-05-09 02:04 | 54.63976 | -81.39854 | 35648 ft | 493 kts | 246° |
| 2026-05-09 02:04 | 54.61215 | -81.50700 | 35649 ft | 494 kts | 246° |
| 2026-05-09 02:05 | 54.58434 | -81.61568 | 35645 ft | 494 kts | 246° |
| 2026-05-09 02:05 | 54.55669 | -81.72326 | 35651 ft | 494 kts | 246° |
| 2026-05-09 02:06 | 54.52872 | -81.83154 | 35647 ft | 494 kts | 246° |
| 2026-05-09 02:07 | 54.48661 | -81.99354 | 35642 ft | 494 kts | 246° |
| 2026-05-09 02:07 | 54.45841 | -82.10142 | 35640 ft | 494 kts | 246° |
| 2026-05-09 02:08 | 54.43008 | -82.20926 | 35639 ft | 494 kts | 246° |
| 2026-05-09 02:08 | 54.40186 | -82.31619 | 35635 ft | 494 kts | 246° |
| 2026-05-09 02:09 | 54.37336 | -82.42367 | 35634 ft | 494 kts | 246° |
| 2026-05-09 02:09 | 54.34481 | -82.53083 | 35628 ft | 494 kts | 246° |
| 2026-05-09 02:10 | 54.31614 | -82.63793 | 35632 ft | 494 kts | 246° |
| 2026-05-09 02:10 | 54.28738 | -82.74488 | 35624 ft | 494 kts | 246° |
| 2026-05-09 02:11 | 54.26343 | -82.83355 | 35622 ft | 494 kts | 245° |
| 2026-05-09 02:11 | 54.23453 | -82.94009 | 35626 ft | 494 kts | 245° |
| 2026-05-09 02:12 | 54.20551 | -83.04657 | 35625 ft | 494 kts | 245° |
| 2026-05-09 02:12 | 54.17638 | -83.15293 | 35627 ft | 494 kts | 245° |
| 2026-05-09 02:13 | 54.14734 | -83.25851 | 35629 ft | 494 kts | 245° |
| 2026-05-09 02:13 | 54.11807 | -83.36442 | 35628 ft | 493 kts | 245° |
| 2026-05-09 02:14 | 54.08872 | -83.47019 | 35630 ft | 493 kts | 245° |
| 2026-05-09 02:14 | 54.05927 | -83.57577 | 35628 ft | 493 kts | 245° |
| 2026-05-09 02:15 | 54.02974 | -83.68118 | 35632 ft | 493 kts | 245° |
| 2026-05-09 02:15 | 54.00032 | -83.78573 | 35630 ft | 493 kts | 245° |
| 2026-05-09 02:16 | 53.97062 | -83.89084 | 35632 ft | 492 kts | 245° |
| 2026-05-09 02:16 | 53.94087 | -83.99560 | 35627 ft | 492 kts | 245° |
| 2026-05-09 02:17 | 53.91125 | -84.09945 | 35630 ft | 492 kts | 245° |
| 2026-05-09 02:17 | 53.88112 | -84.20458 | 35625 ft | 492 kts | 245° |
| 2026-05-09 02:18 | 53.85133 | -84.30810 | 35629 ft | 491 kts | 245° |
| 2026-05-09 02:18 | 53.82126 | -84.41215 | 35635 ft | 491 kts | 245° |
| 2026-05-09 02:19 | 53.79109 | -84.51606 | 35630 ft | 491 kts | 245° |
| 2026-05-09 02:19 | 53.76109 | -84.61892 | 35632 ft | 491 kts | 245° |
| 2026-05-09 02:20 | 53.73062 | -84.72293 | 35634 ft | 490 kts | 245° |
| 2026-05-09 02:20 | 53.70042 | -84.82558 | 35629 ft | 490 kts | 245° |
| 2026-05-09 02:21 | 53.67000 | -84.92855 | 35631 ft | 490 kts | 245° |
| 2026-05-09 02:21 | 53.63957 | -85.03108 | 35634 ft | 489 kts | 245° |
| 2026-05-09 02:22 | 53.60902 | -85.13359 | 35632 ft | 489 kts | 245° |
| 2026-05-09 02:22 | 53.57835 | -85.23604 | 35637 ft | 489 kts | 245° |
| 2026-05-09 02:23 | 53.54784 | -85.33751 | 35634 ft | 489 kts | 245° |
| 2026-05-09 02:23 | 53.51704 | -85.43950 | 35637 ft | 489 kts | 244° |
| 2026-05-09 02:24 | 53.48611 | -85.54152 | 35636 ft | 489 kts | 244° |
| 2026-05-09 02:24 | 53.45516 | -85.64314 | 35632 ft | 489 kts | 244° |
| 2026-05-09 02:25 | 53.42429 | -85.74409 | 35635 ft | 489 kts | 244° |
| 2026-05-09 02:25 | 53.39318 | -85.84541 | 35637 ft | 488 kts | 244° |
| 2026-05-09 02:26 | 53.36196 | -85.94661 | 35639 ft | 489 kts | 244° |
| 2026-05-09 02:26 | 53.33063 | -86.04779 | 35633 ft | 488 kts | 244° |
| 2026-05-09 02:27 | 53.29928 | -86.14857 | 35640 ft | 488 kts | 244° |
| 2026-05-09 02:27 | 53.26800 | -86.24872 | 35639 ft | 488 kts | 244° |
| 2026-05-09 02:28 | 53.23649 | -86.34921 | 35643 ft | 488 kts | 244° |
| 2026-05-09 02:28 | 53.20482 | -86.44974 | 35643 ft | 489 kts | 244° |
| 2026-05-09 02:29 | 53.17308 | -86.55011 | 35643 ft | 489 kts | 244° |
| 2026-05-09 02:29 | 53.14128 | -86.65026 | 35647 ft | 489 kts | 244° |
| 2026-05-09 02:30 | 53.10939 | -86.75028 | 35650 ft | 489 kts | 244° |
| 2026-05-09 02:30 | 53.07876 | -86.84595 | 35657 ft | 489 kts | 244° |
| 2026-05-09 02:31 | 53.04673 | -86.94560 | 35659 ft | 488 kts | 244° |
| 2026-05-09 02:31 | 53.01450 | -87.04545 | 35656 ft | 488 kts | 244° |
| 2026-05-09 02:32 | 52.98229 | -87.14483 | 35654 ft | 488 kts | 244° |
| 2026-05-09 02:32 | 52.95001 | -87.24404 | 35655 ft | 488 kts | 244° |
| 2026-05-09 02:33 | 52.91767 | -87.34304 | 35655 ft | 488 kts | 244° |
| 2026-05-09 02:33 | 52.88542 | -87.44134 | 35659 ft | 488 kts | 244° |
| 2026-05-09 02:34 | 52.85294 | -87.53995 | 35657 ft | 488 kts | 244° |
| 2026-05-09 02:34 | 52.82035 | -87.63850 | 35656 ft | 488 kts | 244° |
| 2026-05-09 02:35 | 52.78767 | -87.73695 | 35657 ft | 488 kts | 243° |
| 2026-05-09 02:35 | 52.75519 | -87.83440 | 35660 ft | 488 kts | 243° |
| 2026-05-09 02:36 | 52.72236 | -87.93248 | 35661 ft | 488 kts | 243° |
| 2026-05-09 02:36 | 52.68942 | -88.03054 | 35665 ft | 487 kts | 243° |
| 2026-05-09 02:37 | 52.65648 | -88.12818 | 35665 ft | 487 kts | 243° |
| 2026-05-09 02:37 | 52.62342 | -88.22581 | 35664 ft | 487 kts | 243° |
| 2026-05-09 02:38 | 52.59051 | -88.32261 | 35667 ft | 487 kts | 243° |
| 2026-05-09 02:38 | 52.55735 | -88.41975 | 35665 ft | 487 kts | 243° |
| 2026-05-09 02:39 | 52.52403 | -88.51700 | 35668 ft | 487 kts | 243° |
| 2026-05-09 02:39 | 52.49112 | -88.61265 | 35671 ft | 488 kts | 243° |
| 2026-05-09 02:40 | 52.45744 | -88.71020 | 35671 ft | 488 kts | 243° |
| 2026-05-09 02:40 | 52.42402 | -88.80659 | 35670 ft | 488 kts | 243° |
| 2026-05-09 02:41 | 52.39036 | -88.90330 | 35671 ft | 488 kts | 243° |
| 2026-05-09 02:41 | 52.35667 | -88.99974 | 35669 ft | 488 kts | 243° |
| 2026-05-09 02:42 | 52.32283 | -89.09619 | 35672 ft | 488 kts | 243° |
| 2026-05-09 02:42 | 52.28896 | -89.19241 | 35670 ft | 488 kts | 243° |
| 2026-05-09 02:43 | 52.25496 | -89.28861 | 35671 ft | 488 kts | 243° |
| 2026-05-09 02:43 | 52.22111 | -89.38401 | 35672 ft | 488 kts | 243° |
| 2026-05-09 02:44 | 52.18700 | -89.47979 | 35675 ft | 488 kts | 243° |
| 2026-05-09 02:44 | 52.15281 | -89.57541 | 35674 ft | 488 kts | 242° |
| 2026-05-09 02:45 | 52.11854 | -89.67092 | 35676 ft | 488 kts | 242° |
| 2026-05-09 02:45 | 52.08420 | -89.76626 | 35676 ft | 488 kts | 242° |
| 2026-05-09 02:46 | 52.04981 | -89.86137 | 35676 ft | 488 kts | 242° |
| 2026-05-09 02:46 | 52.01553 | -89.95579 | 35677 ft | 488 kts | 242° |
| 2026-05-09 02:47 | 51.98094 | -90.05075 | 35681 ft | 488 kts | 242° |
| 2026-05-09 02:47 | 51.94636 | -90.14532 | 35680 ft | 488 kts | 242° |
| 2026-05-09 02:48 | 51.91164 | -90.23989 | 35679 ft | 488 kts | 242° |
| 2026-05-09 02:48 | 51.87685 | -90.33433 | 35680 ft | 488 kts | 242° |
| 2026-05-09 02:49 | 51.84196 | -90.42867 | 35681 ft | 487 kts | 242° |
| 2026-05-09 02:49 | 51.80699 | -90.52274 | 35678 ft | 487 kts | 242° |
| 2026-05-09 02:50 | 51.77216 | -90.61596 | 35680 ft | 487 kts | 242° |
| 2026-05-09 02:50 | 51.73699 | -90.70974 | 35681 ft | 487 kts | 242° |
| 2026-05-09 02:51 | 51.70180 | -90.80325 | 35678 ft | 487 kts | 242° |
| 2026-05-09 02:51 | 51.66652 | -90.89662 | 35677 ft | 487 kts | 242° |
| 2026-05-09 02:52 | 51.63116 | -90.98988 | 35691 ft | 487 kts | 242° |
| 2026-05-09 02:52 | 51.59596 | -91.08238 | 35692 ft | 487 kts | 242° |
| 2026-05-09 02:53 | 51.56045 | -91.17535 | 35688 ft | 487 kts | 242° |
| 2026-05-09 02:53 | 51.52488 | -91.26816 | 35687 ft | 487 kts | 242° |
| 2026-05-09 02:54 | 51.48921 | -91.36089 | 35690 ft | 487 kts | 242° |
| 2026-05-09 02:54 | 51.45949 | -91.43788 | 35687 ft | 487 kts | 242° |
| 2026-05-09 02:55 | 51.41791 | -91.54524 | 35697 ft | 488 kts | 241° |
| 2026-05-09 02:55 | 51.38788 | -91.62249 | 35697 ft | 487 kts | 241° |
| 2026-05-09 02:56 | 51.35192 | -91.71469 | 35695 ft | 488 kts | 241° |
| 2026-05-09 02:56 | 51.31606 | -91.80630 | 35694 ft | 488 kts | 241° |
| 2026-05-09 02:57 | 51.27994 | -91.89825 | 35699 ft | 488 kts | 241° |
| 2026-05-09 02:57 | 51.24377 | -91.99000 | 35698 ft | 488 kts | 241° |
| 2026-05-09 02:58 | 51.20752 | -92.08162 | 35697 ft | 488 kts | 241° |
| 2026-05-09 02:58 | 51.17142 | -92.17254 | 35703 ft | 488 kts | 241° |
| 2026-05-09 02:59 | 51.13493 | -92.26412 | 35697 ft | 488 kts | 241° |
| 2026-05-09 02:59 | 51.09845 | -92.35536 | 35692 ft | 488 kts | 241° |
| 2026-05-09 03:00 | 51.06188 | -92.44650 | 35702 ft | 489 kts | 241° |
| 2026-05-09 03:00 | 51.02522 | -92.53753 | 35697 ft | 489 kts | 241° |
| 2026-05-09 03:01 | 50.98847 | -92.62849 | 35694 ft | 489 kts | 241° |
| 2026-05-09 03:01 | 50.95186 | -92.71879 | 35693 ft | 489 kts | 241° |
| 2026-05-09 03:02 | 50.91496 | -92.80945 | 35690 ft | 489 kts | 241° |
| 2026-05-09 03:02 | 50.87797 | -92.90005 | 35691 ft | 490 kts | 241° |
| 2026-05-09 03:03 | 50.84079 | -92.99077 | 35689 ft | 490 kts | 241° |
| 2026-05-09 03:03 | 50.80389 | -93.08053 | 35686 ft | 490 kts | 241° |
| 2026-05-09 03:04 | 50.76670 | -93.17066 | 35694 ft | 490 kts | 241° |
| 2026-05-09 03:04 | 50.72941 | -93.26073 | 35695 ft | 490 kts | 241° |
| 2026-05-09 03:05 | 50.69627 | -93.34050 | 35691 ft | 490 kts | 240° |
| 2026-05-09 03:05 | 50.65884 | -93.43033 | 35694 ft | 490 kts | 240° |
| 2026-05-09 03:06 | 50.62125 | -93.52022 | 35693 ft | 490 kts | 240° |
| 2026-05-09 03:06 | 50.58360 | -93.60996 | 35694 ft | 490 kts | 240° |
| 2026-05-09 03:07 | 50.54606 | -93.69911 | 35694 ft | 490 kts | 240° |
| 2026-05-09 03:07 | 50.50844 | -93.78816 | 35698 ft | 490 kts | 240° |
| 2026-05-09 03:08 | 50.47060 | -93.87742 | 35698 ft | 491 kts | 240° |
| 2026-05-09 03:08 | 50.43272 | -93.96648 | 35707 ft | 491 kts | 240° |
| 2026-05-09 03:09 | 50.39469 | -94.05557 | 35709 ft | 491 kts | 240° |
| 2026-05-09 03:09 | 50.35661 | -94.14450 | 35716 ft | 491 kts | 240° |
| 2026-05-09 03:10 | 50.31871 | -94.23270 | 35722 ft | 491 kts | 240° |
| 2026-05-09 03:10 | 50.28049 | -94.32134 | 35721 ft | 491 kts | 240° |
| 2026-05-09 03:11 | 50.24213 | -94.41000 | 35722 ft | 491 kts | 240° |
| 2026-05-09 03:11 | 50.20380 | -94.49832 | 35729 ft | 491 kts | 240° |
| 2026-05-09 03:12 | 50.16531 | -94.58670 | 35738 ft | 491 kts | 240° |
| 2026-05-09 03:12 | 50.12678 | -94.67486 | 35744 ft | 491 kts | 240° |
| 2026-05-09 03:13 | 50.06922 | -94.80604 | 35742 ft | 491 kts | 240° |
| 2026-05-09 03:13 | 50.03054 | -94.89383 | 35742 ft | 491 kts | 240° |
| 2026-05-09 03:14 | 49.99180 | -94.98145 | 35744 ft | 491 kts | 240° |
| 2026-05-09 03:14 | 49.95337 | -95.06808 | 35749 ft | 491 kts | 240° |
| 2026-05-09 03:15 | 49.91454 | -95.15535 | 35752 ft | 491 kts | 240° |
| 2026-05-09 03:15 | 49.87562 | -95.24251 | 35753 ft | 490 kts | 240° |
| 2026-05-09 03:16 | 49.83672 | -95.32937 | 35754 ft | 490 kts | 240° |
| 2026-05-09 03:16 | 49.79791 | -95.41573 | 35760 ft | 490 kts | 240° |
| 2026-05-09 03:17 | 49.75884 | -95.50237 | 35759 ft | 490 kts | 240° |
| 2026-05-09 03:17 | 49.71972 | -95.58884 | 35761 ft | 490 kts | 240° |
| 2026-05-09 03:18 | 49.68056 | -95.67513 | 35763 ft | 490 kts | 240° |
| 2026-05-09 03:18 | 49.64174 | -95.76041 | 35760 ft | 490 kts | 240° |
| 2026-05-09 03:19 | 49.60251 | -95.84628 | 35760 ft | 489 kts | 240° |
| 2026-05-09 03:19 | 49.56345 | -95.93151 | 35758 ft | 489 kts | 240° |
| 2026-05-09 03:20 | 49.52384 | -96.01768 | 35756 ft | 489 kts | 240° |
| 2026-05-09 03:20 | 49.48446 | -96.10308 | 35757 ft | 489 kts | 240° |
| 2026-05-09 03:21 | 49.44531 | -96.18768 | 35752 ft | 489 kts | 240° |
| 2026-05-09 03:21 | 49.40553 | -96.27339 | 35755 ft | 489 kts | 240° |
| 2026-05-09 03:22 | 49.36618 | -96.35790 | 35746 ft | 489 kts | 240° |
| 2026-05-09 03:22 | 49.32654 | -96.44276 | 35747 ft | 489 kts | 240° |
| 2026-05-09 03:23 | 49.28685 | -96.52746 | 35746 ft | 489 kts | 240° |
| 2026-05-09 03:23 | 49.24707 | -96.61209 | 35744 ft | 489 kts | 240° |
| 2026-05-09 03:24 | 49.20731 | -96.69640 | 35739 ft | 489 kts | 240° |
| 2026-05-09 03:24 | 49.16745 | -96.78065 | 35738 ft | 488 kts | 240° |
| 2026-05-09 03:25 | 49.12754 | -96.86476 | 35733 ft | 488 kts | 241° |
| 2026-05-09 03:25 | 49.08785 | -96.94828 | 35730 ft | 488 kts | 241° |
| 2026-05-09 03:26 | 49.04793 | -97.03208 | 35731 ft | 487 kts | 241° |
| 2026-05-09 03:26 | 49.00791 | -97.11580 | 35733 ft | 487 kts | 241° |
| 2026-05-09 03:27 | 48.96814 | -97.19876 | 35733 ft | 487 kts | 241° |
| 2026-05-09 03:27 | 48.92788 | -97.28249 | 35736 ft | 487 kts | 241° |
| 2026-05-09 03:28 | 48.88797 | -97.36521 | 35731 ft | 487 kts | 241° |
| 2026-05-09 03:28 | 48.84787 | -97.44809 | 35726 ft | 487 kts | 241° |
| 2026-05-09 03:29 | 48.80757 | -97.53112 | 35735 ft | 486 kts | 241° |
| 2026-05-09 03:29 | 48.76734 | -97.61373 | 35738 ft | 486 kts | 241° |
| 2026-05-09 03:30 | 48.72733 | -97.69565 | 35745 ft | 486 kts | 241° |
| 2026-05-09 03:30 | 48.68698 | -97.77802 | 35749 ft | 486 kts | 241° |
| 2026-05-09 03:31 | 48.64662 | -97.86014 | 35756 ft | 486 kts | 242° |
| 2026-05-09 03:31 | 48.60617 | -97.94220 | 35761 ft | 485 kts | 242° |
| 2026-05-09 03:32 | 48.57248 | -98.01036 | 35768 ft | 485 kts | 242° |
| 2026-05-09 03:32 | 48.53203 | -98.09195 | 35766 ft | 484 kts | 242° |
| 2026-05-09 03:33 | 48.49179 | -98.17289 | 35770 ft | 484 kts | 242° |
| 2026-05-09 03:33 | 48.45137 | -98.25394 | 35779 ft | 483 kts | 242° |
| 2026-05-09 03:34 | 48.41094 | -98.33475 | 35785 ft | 482 kts | 242° |
| 2026-05-09 03:34 | 48.37056 | -98.41526 | 35787 ft | 482 kts | 242° |
| 2026-05-09 03:35 | 48.33009 | -98.49567 | 35793 ft | 481 kts | 243° |
| 2026-05-09 03:35 | 48.28971 | -98.57565 | 35790 ft | 480 kts | 243° |
| 2026-05-09 03:36 | 48.24933 | -98.65542 | 35789 ft | 480 kts | 243° |
| 2026-05-09 03:36 | 48.20888 | -98.73511 | 35786 ft | 479 kts | 243° |
| 2026-05-09 03:37 | 48.16842 | -98.81457 | 35784 ft | 479 kts | 243° |
| 2026-05-09 03:37 | 48.12785 | -98.89404 | 35784 ft | 479 kts | 243° |
| 2026-05-09 03:38 | 48.08725 | -98.97332 | 35783 ft | 479 kts | 243° |
| 2026-05-09 03:38 | 48.04692 | -99.05182 | 35783 ft | 478 kts | 243° |
| 2026-05-09 03:39 | 48.00630 | -99.13069 | 35791 ft | 478 kts | 243° |
| 2026-05-09 03:39 | 47.96563 | -99.20940 | 35789 ft | 477 kts | 243° |
| 2026-05-09 03:40 | 47.92500 | -99.28783 | 35802 ft | 477 kts | 243° |
| 2026-05-09 03:40 | 47.88432 | -99.36611 | 35799 ft | 476 kts | 243° |
| 2026-05-09 03:41 | 47.84366 | -99.44416 | 35798 ft | 476 kts | 243° |
| 2026-05-09 03:41 | 47.80319 | -99.52159 | 35800 ft | 475 kts | 243° |
| 2026-05-09 03:42 | 47.76255 | -99.59914 | 35793 ft | 475 kts | 243° |
| 2026-05-09 03:42 | 47.72181 | -99.67665 | 35781 ft | 475 kts | 243° |
| 2026-05-09 03:43 | 47.68105 | -99.75397 | 35788 ft | 474 kts | 243° |
| 2026-05-09 03:43 | 47.64089 | -99.82996 | 35786 ft | 474 kts | 243° |
| 2026-05-09 03:44 | 47.59960 | -99.90789 | 35779 ft | 474 kts | 243° |
| 2026-05-09 03:44 | 47.55872 | -99.98480 | 35778 ft | 474 kts | 243° |
| 2026-05-09 03:45 | 47.51809 | -100.06105 | 35776 ft | 475 kts | 243° |
| 2026-05-09 03:45 | 47.47709 | -100.13775 | 35775 ft | 475 kts | 243° |
| 2026-05-09 03:46 | 47.43598 | -100.21445 | 35774 ft | 475 kts | 243° |
| 2026-05-09 03:46 | 47.39490 | -100.29088 | 35771 ft | 475 kts | 242° |
| 2026-05-09 03:47 | 47.35377 | -100.36720 | 35769 ft | 475 kts | 242° |
| 2026-05-09 03:47 | 47.31252 | -100.44351 | 35768 ft | 475 kts | 242° |
| 2026-05-09 03:48 | 47.27128 | -100.51960 | 35763 ft | 475 kts | 242° |
| 2026-05-09 03:48 | 47.22993 | -100.59567 | 35761 ft | 475 kts | 242° |
| 2026-05-09 03:49 | 47.18876 | -100.67116 | 35758 ft | 475 kts | 242° |
| 2026-05-09 03:49 | 47.14750 | -100.74663 | 35763 ft | 474 kts | 242° |
| 2026-05-09 03:50 | 47.10632 | -100.82176 | 35756 ft | 473 kts | 242° |
| 2026-05-09 03:50 | 47.06499 | -100.89695 | 35755 ft | 473 kts | 242° |
| 2026-05-09 03:51 | 47.02361 | -100.97200 | 35756 ft | 472 kts | 242° |
| 2026-05-09 03:51 | 46.98225 | -101.04684 | 35756 ft | 472 kts | 242° |
| 2026-05-09 03:52 | 46.94085 | -101.12156 | 35752 ft | 472 kts | 242° |
| 2026-05-09 03:52 | 46.89936 | -101.19621 | 35760 ft | 472 kts | 242° |
| 2026-05-09 03:53 | 46.85787 | -101.27070 | 35751 ft | 472 kts | 242° |
| 2026-05-09 03:53 | 46.81664 | -101.34449 | 35750 ft | 473 kts | 242° |
| 2026-05-09 03:54 | 46.77488 | -101.41904 | 35753 ft | 473 kts | 242° |
| 2026-05-09 03:54 | 46.73313 | -101.49337 | 35750 ft | 473 kts | 242° |
| 2026-05-09 03:55 | 46.69138 | -101.56750 | 35759 ft | 473 kts | 242° |
| 2026-05-09 03:55 | 46.64958 | -101.64153 | 35763 ft | 473 kts | 242° |
| 2026-05-09 03:56 | 46.60778 | -101.71534 | 35765 ft | 473 kts | 242° |
| 2026-05-09 03:56 | 46.56592 | -101.78906 | 35772 ft | 472 kts | 241° |
| 2026-05-09 03:57 | 46.52398 | -101.86273 | 35774 ft | 472 kts | 241° |
| 2026-05-09 03:57 | 46.48228 | -101.93577 | 35777 ft | 472 kts | 241° |
| 2026-05-09 03:58 | 46.44035 | -102.00902 | 35783 ft | 471 kts | 241° |
| 2026-05-09 03:58 | 46.39843 | -102.08208 | 35779 ft | 471 kts | 241° |
| 2026-05-09 03:59 | 46.35647 | -102.15500 | 35783 ft | 471 kts | 241° |
| 2026-05-09 03:59 | 46.31444 | -102.22784 | 35786 ft | 470 kts | 240° |
| 2026-05-09 04:00 | 46.27238 | -102.30054 | 35788 ft | 470 kts | 240° |
| 2026-05-09 04:00 | 46.23062 | -102.37254 | 35800 ft | 470 kts | 240° |
| 2026-05-09 04:01 | 46.18852 | -102.44493 | 35814 ft | 470 kts | 240° |
| 2026-05-09 04:01 | 46.14636 | -102.51723 | 35825 ft | 470 kts | 240° |
| 2026-05-09 04:02 | 46.10419 | -102.58937 | 35837 ft | 470 kts | 240° |
| 2026-05-09 04:02 | 46.06197 | -102.66140 | 35840 ft | 469 kts | 240° |
| 2026-05-09 04:03 | 46.02006 | -102.73272 | 35840 ft | 469 kts | 240° |
| 2026-05-09 04:03 | 45.97784 | -102.80445 | 35834 ft | 470 kts | 240° |
| 2026-05-09 04:04 | 45.93557 | -102.87613 | 35824 ft | 470 kts | 240° |
| 2026-05-09 04:04 | 45.89316 | -102.94779 | 35820 ft | 471 kts | 239° |
| 2026-05-09 04:05 | 45.85057 | -103.01951 | 35815 ft | 471 kts | 239° |
| 2026-05-09 04:05 | 45.80789 | -103.09121 | 35812 ft | 472 kts | 239° |
| 2026-05-09 04:06 | 45.76535 | -103.16247 | 35811 ft | 472 kts | 239° |
| 2026-05-09 04:06 | 45.72967 | -103.22210 | 35813 ft | 473 kts | 239° |
| 2026-05-09 04:07 | 45.67985 | -103.30515 | 35815 ft | 472 kts | 239° |
| 2026-05-09 04:07 | 45.64422 | -103.36441 | 35816 ft | 472 kts | 238° |
| 2026-05-09 04:08 | 45.60123 | -103.43572 | 35815 ft | 472 kts | 238° |
| 2026-05-09 04:08 | 45.55825 | -103.50686 | 35817 ft | 473 kts | 238° |
| 2026-05-09 04:09 | 45.51515 | -103.57799 | 35814 ft | 473 kts | 238° |
| 2026-05-09 04:09 | 45.47211 | -103.64885 | 35817 ft | 473 kts | 238° |
| 2026-05-09 04:10 | 45.42894 | -103.71975 | 35818 ft | 473 kts | 238° |
| 2026-05-09 04:10 | 45.38603 | -103.79003 | 35820 ft | 473 kts | 237° |
| 2026-05-09 04:11 | 45.34276 | -103.86072 | 35821 ft | 473 kts | 237° |
| 2026-05-09 04:11 | 45.29951 | -103.93120 | 35822 ft | 473 kts | 237° |
| 2026-05-09 04:12 | 45.25643 | -104.00122 | 35822 ft | 473 kts | 237° |
| 2026-05-09 04:12 | 45.21306 | -104.07155 | 35822 ft | 473 kts | 237° |
| 2026-05-09 04:13 | 45.16992 | -104.14134 | 35829 ft | 473 kts | 237° |
| 2026-05-09 04:13 | 45.12650 | -104.21139 | 35829 ft | 473 kts | 237° |
| 2026-05-09 04:14 | 45.08297 | -104.28145 | 35834 ft | 473 kts | 236° |
| 2026-05-09 04:14 | 45.03931 | -104.35153 | 35837 ft | 473 kts | 236° |
| 2026-05-09 04:15 | 44.99609 | -104.42073 | 35851 ft | 473 kts | 236° |
| 2026-05-09 04:15 | 44.95252 | -104.49033 | 35848 ft | 473 kts | 236° |
| 2026-05-09 04:16 | 44.90887 | -104.55987 | 35850 ft | 472 kts | 236° |
| 2026-05-09 04:16 | 44.86546 | -104.62888 | 35854 ft | 472 kts | 236° |
| 2026-05-09 04:17 | 44.82167 | -104.69829 | 35853 ft | 472 kts | 236° |
| 2026-05-09 04:17 | 44.77795 | -104.76745 | 35859 ft | 473 kts | 235° |
| 2026-05-09 04:18 | 44.73411 | -104.83660 | 35853 ft | 473 kts | 235° |
| 2026-05-09 04:18 | 44.69028 | -104.90560 | 35856 ft | 473 kts | 235° |
| 2026-05-09 04:19 | 44.64667 | -104.97405 | 35862 ft | 473 kts | 235° |
| 2026-05-09 04:19 | 44.60272 | -105.04289 | 35859 ft | 473 kts | 235° |
| 2026-05-09 04:20 | 44.55873 | -105.11160 | 35865 ft | 473 kts | 234° |
| 2026-05-09 04:20 | 44.51491 | -105.17989 | 35877 ft | 473 kts | 234° |
| 2026-05-09 04:21 | 44.47076 | -105.24853 | 35895 ft | 473 kts | 234° |
| 2026-05-09 04:22 | 44.40460 | -105.35104 | 35920 ft | 472 kts | 234° |
| 2026-05-09 04:22 | 44.36053 | -105.41912 | 35943 ft | 472 kts | 234° |
| 2026-05-09 04:23 | 44.31637 | -105.48717 | 35932 ft | 472 kts | 234° |
| 2026-05-09 04:23 | 44.27249 | -105.55465 | 35940 ft | 472 kts | 234° |
| 2026-05-09 04:24 | 44.22827 | -105.62248 | 35920 ft | 472 kts | 234° |
| 2026-05-09 04:24 | 44.18399 | -105.69025 | 35914 ft | 472 kts | 234° |
| 2026-05-09 04:25 | 44.13960 | -105.75801 | 35886 ft | 472 kts | 234° |
| 2026-05-09 04:25 | 44.09555 | -105.82509 | 35882 ft | 472 kts | 234° |
| 2026-05-09 04:26 | 44.05108 | -105.89267 | 35862 ft | 472 kts | 234° |
| 2026-05-09 04:26 | 44.00658 | -105.96013 | 35877 ft | 473 kts | 234° |
| 2026-05-09 04:27 | 43.96210 | -106.02739 | 35851 ft | 473 kts | 234° |
| 2026-05-09 04:27 | 43.91754 | -106.09460 | 35861 ft | 473 kts | 234° |
| 2026-05-09 04:28 | 43.87290 | -106.16177 | 35856 ft | 473 kts | 233° |
| 2026-05-09 04:28 | 43.82841 | -106.22854 | 35738 ft | 465 kts | 233° |
| 2026-05-09 04:28 | 43.80643 | -106.26137 | 35852 ft | 464 kts | 233° |
| 2026-05-09 04:29 | 43.78482 | -106.29362 | 35867 ft | 463 kts | 233° |
| 2026-05-09 04:29 | 43.74075 | -106.35937 | 35871 ft | 463 kts | 233° |
| 2026-05-09 04:30 | 43.69726 | -106.42418 | 35854 ft | 462 kts | 233° |
| 2026-05-09 04:30 | 43.65353 | -106.48921 | 35856 ft | 462 kts | 233° |
| 2026-05-09 04:31 | 43.60971 | -106.55423 | 35851 ft | 461 kts | 232° |
| 2026-05-09 04:31 | 43.56594 | -106.61902 | 35856 ft | 461 kts | 232° |
| 2026-05-09 04:32 | 43.52219 | -106.68364 | 35850 ft | 461 kts | 232° |
| 2026-05-09 04:32 | 43.47839 | -106.74816 | 35860 ft | 460 kts | 232° |
| 2026-05-09 04:33 | 43.43467 | -106.81245 | 35855 ft | 460 kts | 232° |
| 2026-05-09 04:33 | 43.39091 | -106.87662 | 35863 ft | 459 kts | 232° |
| 2026-05-09 04:34 | 43.34749 | -106.94015 | 35863 ft | 458 kts | 232° |
| 2026-05-09 04:34 | 43.30353 | -107.00434 | 35868 ft | 458 kts | 232° |
| 2026-05-09 04:35 | 43.26005 | -107.06768 | 35865 ft | 457 kts | 232° |
| 2026-05-09 04:35 | 43.21635 | -107.13120 | 35867 ft | 457 kts | 232° |
| 2026-05-09 04:36 | 43.17271 | -107.19450 | 35867 ft | 457 kts | 231° |
| 2026-05-09 04:36 | 43.12906 | -107.25767 | 35868 ft | 456 kts | 231° |
| 2026-05-09 04:37 | 43.08536 | -107.32077 | 35862 ft | 456 kts | 231° |
| 2026-05-09 04:37 | 43.04158 | -107.38387 | 35862 ft | 457 kts | 231° |
| 2026-05-09 04:38 | 42.99799 | -107.44657 | 35863 ft | 457 kts | 231° |
| 2026-05-09 04:38 | 42.95406 | -107.50961 | 35859 ft | 458 kts | 231° |
| 2026-05-09 04:39 | 42.91002 | -107.57267 | 35865 ft | 458 kts | 231° |
| 2026-05-09 04:39 | 42.86588 | -107.63573 | 35857 ft | 459 kts | 231° |
| 2026-05-09 04:40 | 42.82196 | -107.69835 | 35865 ft | 460 kts | 231° |
| 2026-05-09 04:40 | 42.77765 | -107.76138 | 35865 ft | 460 kts | 230° |
| 2026-05-09 04:41 | 42.73333 | -107.82427 | 35864 ft | 461 kts | 230° |
| 2026-05-09 04:41 | 42.68886 | -107.88724 | 35865 ft | 461 kts | 230° |
| 2026-05-09 04:42 | 42.64440 | -107.95006 | 35872 ft | 461 kts | 230° |
| 2026-05-09 04:42 | 42.59990 | -108.01279 | 35866 ft | 461 kts | 230° |
| 2026-05-09 04:43 | 42.55555 | -108.07517 | 35868 ft | 461 kts | 230° |
| 2026-05-09 04:43 | 42.51101 | -108.13766 | 35865 ft | 460 kts | 230° |
| 2026-05-09 04:44 | 42.46650 | -108.19994 | 35866 ft | 459 kts | 230° |
| 2026-05-09 04:44 | 42.42197 | -108.26214 | 35865 ft | 458 kts | 230° |
| 2026-05-09 04:45 | 42.37752 | -108.32408 | 35875 ft | 457 kts | 230° |
| 2026-05-09 04:45 | 42.33344 | -108.38536 | 35884 ft | 457 kts | 230° |
| 2026-05-09 04:46 | 42.28913 | -108.44684 | 35890 ft | 456 kts | 230° |
| 2026-05-09 04:46 | 42.24478 | -108.50825 | 35896 ft | 456 kts | 230° |
| 2026-05-09 04:47 | 42.20049 | -108.56945 | 35898 ft | 455 kts | 230° |
| 2026-05-09 04:47 | 42.15621 | -108.63051 | 35907 ft | 455 kts | 230° |
| 2026-05-09 04:48 | 42.11938 | -108.68119 | 35914 ft | 454 kts | 229° |
| 2026-05-09 04:48 | 42.06887 | -108.75056 | 35920 ft | 454 kts | 229° |
| 2026-05-09 04:49 | 42.03167 | -108.80155 | 35923 ft | 454 kts | 229° |
| 2026-05-09 04:49 | 41.98739 | -108.86214 | 35925 ft | 455 kts | 229° |
| 2026-05-09 04:50 | 41.94295 | -108.92283 | 35928 ft | 455 kts | 229° |
| 2026-05-09 04:50 | 41.89846 | -108.98348 | 35967 ft | 456 kts | 229° |
| 2026-05-09 04:51 | 41.85388 | -109.04411 | 36004 ft | 457 kts | 229° |
| 2026-05-09 04:51 | 41.80946 | -109.10440 | 36033 ft | 457 kts | 229° |
| 2026-05-09 04:52 | 41.76463 | -109.16512 | 36052 ft | 458 kts | 229° |
| 2026-05-09 04:52 | 41.71972 | -109.22582 | 36066 ft | 458 kts | 229° |
| 2026-05-09 04:53 | 41.67472 | -109.28650 | 36059 ft | 458 kts | 229° |
| 2026-05-09 04:53 | 41.62976 | -109.34697 | 36044 ft | 458 kts | 229° |
| 2026-05-09 04:54 | 41.58505 | -109.40697 | 36014 ft | 458 kts | 229° |
| 2026-05-09 04:54 | 41.54009 | -109.46719 | 35986 ft | 457 kts | 229° |
| 2026-05-09 04:55 | 41.49512 | -109.52729 | 35953 ft | 457 kts | 229° |
| 2026-05-09 04:55 | 41.45016 | -109.58726 | 35955 ft | 457 kts | 229° |
| 2026-05-09 04:56 | 41.40519 | -109.64713 | 35955 ft | 457 kts | 229° |
| 2026-05-09 04:56 | 41.36015 | -109.70696 | 35957 ft | 457 kts | 229° |
| 2026-05-09 04:57 | 41.31512 | -109.76666 | 35955 ft | 456 kts | 229° |
| 2026-05-09 04:57 | 41.26994 | -109.82623 | 35980 ft | 471 kts | 233° |
| 2026-05-09 04:57 | 41.24639 | -109.85759 | 35958 ft | 487 kts | 233° |
| 2026-05-09 04:58 | 41.22225 | -109.88996 | 35962 ft | 498 kts | 233° |
| 2026-05-09 04:58 | 41.17274 | -109.95603 | 35977 ft | 507 kts | 232° |
| 2026-05-09 04:59 | 41.12259 | -110.02223 | 35980 ft | 508 kts | 232° |
| 2026-05-09 04:59 | 41.07239 | -110.08809 | 35994 ft | 508 kts | 232° |
| 2026-05-09 05:00 | 41.02212 | -110.15387 | 35996 ft | 507 kts | 232° |
| 2026-05-09 05:00 | 40.97191 | -110.21941 | 36013 ft | 506 kts | 232° |
| 2026-05-09 05:01 | 40.92195 | -110.28451 | 36011 ft | 506 kts | 232° |
| 2026-05-09 05:01 | 40.87171 | -110.34981 | 36022 ft | 505 kts | 232° |
| 2026-05-09 05:02 | 40.82150 | -110.41496 | 36029 ft | 506 kts | 231° |
| 2026-05-09 05:02 | 40.77118 | -110.48016 | 36032 ft | 505 kts | 231° |
| 2026-05-09 05:03 | 40.72095 | -110.54496 | 36028 ft | 505 kts | 231° |
| 2026-05-09 05:03 | 40.67092 | -110.60938 | 36020 ft | 505 kts | 231° |
| 2026-05-09 05:04 | 40.62045 | -110.67240 | 36011 ft | 509 kts | 229° |
| 2026-05-09 05:04 | 40.56649 | -110.73297 | 35992 ft | 512 kts | 225° |
| 2026-05-09 05:05 | 40.50894 | -110.78885 | 35919 ft | 513 kts | 220° |
| 2026-05-09 05:05 | 40.44742 | -110.83833 | 35906 ft | 520 kts | 214° |
| 2026-05-09 05:06 | 40.38156 | -110.87943 | 35893 ft | 527 kts | 207° |
| 2026-05-09 05:06 | 40.31184 | -110.90914 | 35890 ft | 534 kts | 198° |
| 2026-05-09 05:07 | 40.23834 | -110.92579 | 35910 ft | 539 kts | 189° |
| 2026-05-09 05:07 | 40.16311 | -110.92906 | 35926 ft | 542 kts | 181° |
| 2026-05-09 05:08 | 40.08815 | -110.91911 | 35938 ft | 545 kts | 172° |
| 2026-05-09 05:08 | 40.01433 | -110.89611 | 35958 ft | 546 kts | 163° |
| 2026-05-09 05:09 | 39.94434 | -110.86075 | 36004 ft | 546 kts | 155° |
| 2026-05-09 05:09 | 39.87772 | -110.81255 | 36070 ft | 548 kts | 147° |
| 2026-05-09 05:10 | 39.81730 | -110.75239 | 36140 ft | 545 kts | 137° |
| 2026-05-09 05:10 | 39.76476 | -110.68228 | 36207 ft | 544 kts | 128° |
| 2026-05-09 05:11 | 39.72034 | -110.60308 | 36259 ft | 539 kts | 119° |
| 2026-05-09 05:11 | 39.68514 | -110.51702 | 36315 ft | 535 kts | 110° |
| 2026-05-09 05:12 | 39.65940 | -110.42695 | 36341 ft | 530 kts | 101° |
| 2026-05-09 05:12 | 39.64432 | -110.33454 | 36365 ft | 523 kts | 91° |
| 2026-05-09 05:13 | 39.64258 | -110.24112 | 36414 ft | 513 kts | 80° |
| 2026-05-09 05:13 | 39.65227 | -110.15028 | 36488 ft | 505 kts | 71° |
| 2026-05-09 05:14 | 39.67219 | -110.06398 | 36573 ft | 494 kts | 62° |
| 2026-05-09 05:14 | 39.70206 | -109.98470 | 36664 ft | 482 kts | 52° |
| 2026-05-09 05:15 | 39.74001 | -109.91409 | 36760 ft | 475 kts | 44° |
| 2026-05-09 05:15 | 39.78424 | -109.85109 | 36828 ft | 468 kts | 37° |
| 2026-05-09 05:16 | 39.83306 | -109.79569 | 36929 ft | 462 kts | 31° |
| 2026-05-09 05:16 | 39.88591 | -109.74914 | 37032 ft | 455 kts | 24° |
| 2026-05-09 05:17 | 39.94219 | -109.71266 | 37104 ft | 448 kts | 16° |
| 2026-05-09 05:17 | 40.00067 | -109.68740 | 37200 ft | 442 kts | 9° |
| 2026-05-09 05:18 | 40.06088 | -109.67366 | 37289 ft | 436 kts | 1° |
| 2026-05-09 05:18 | 40.12123 | -109.67189 | 37398 ft | 431 kts | 353° |
| 2026-05-09 05:19 | 40.18028 | -109.68222 | 37537 ft | 427 kts | 345° |
| 2026-05-09 05:19 | 40.23664 | -109.70423 | 37655 ft | 424 kts | 337° |
| 2026-05-09 05:20 | 40.28946 | -109.73762 | 37763 ft | 416 kts | 329° |
| 2026-05-09 05:20 | 40.31350 | -109.75793 | 37789 ft | 405 kts | 324° |
| 2026-05-09 05:20 | 40.33550 | -109.78011 | 37802 ft | 393 kts | 320° |